UAL870 YSSY-KSFO
Flight info
| Callsign | UAL870 |
|---|---|
| Flight time | 10h 42m |
| Altitude | 33000 |
| Route | OLSEM Y193 BANDA H252 GOMOL Q47 SCOTT A464 DUBUD DCT 28S160E 27S163E/N0498F350 DCT VIRAR DCT 20S173E 15S178E DCT IDEMU DCT 05S174W/N0496F370 00N169W 05N164W 10N159W 15N155W 20N150W/N0483F390 24N145W DCT ETNIC DCT 30N134W 33N130W DCT CINNY PIRAT3 |
| Aircraft | B789/H-SDE1E2E3FGHIJ2J3J4J5M1RWXY/LB1D1 |
Departure
| Time | 2026-05-06 00:45 |
|---|---|
| Airport | Sydney Kingsford Smith International Airport (YSSY) |
Arrival
| Time | 2026-05-06 11:27 |
|---|---|
| Airport | San Francisco International Airport (KSFO) |
| Time | Latitude | Longitude | Altitude | Speed | Heading |
|---|---|---|---|---|---|
| 2026-05-05 23:59 | -33.93894 | 151.16860 | 26 ft | 0 kts | 70° |
| 2026-05-06 00:34 | -33.93895 | 151.16855 | 32 ft | 3 kts | 71° |
| 2026-05-06 00:34 | -33.93901 | 151.16831 | 32 ft | 3 kts | 67° |
| 2026-05-06 00:34 | -33.93909 | 151.16807 | 32 ft | 3 kts | 81° |
| 2026-05-06 00:34 | -33.93909 | 151.16782 | 31 ft | 3 kts | 109° |
| 2026-05-06 00:35 | -33.93899 | 151.16763 | 30 ft | 3 kts | 152° |
| 2026-05-06 00:35 | -33.93892 | 151.16759 | 32 ft | 0 kts | 165° |
| 2026-05-06 00:37 | -33.93897 | 151.16761 | 30 ft | 3 kts | 165° |
| 2026-05-06 00:38 | -33.93940 | 151.16774 | 29 ft | 9 kts | 164° |
| 2026-05-06 00:38 | -33.94017 | 151.16803 | 29 ft | 13 kts | 153° |
| 2026-05-06 00:38 | -33.94052 | 151.16889 | 30 ft | 13 kts | 78° |
| 2026-05-06 00:38 | -33.94020 | 151.17020 | 28 ft | 19 kts | 74° |
| 2026-05-06 00:39 | -33.93988 | 151.17186 | 28 ft | 20 kts | 103° |
| 2026-05-06 00:39 | -33.94078 | 151.17250 | 27 ft | 15 kts | 166° |
| 2026-05-06 00:39 | -33.94197 | 151.17282 | 27 ft | 21 kts | 169° |
| 2026-05-06 00:39 | -33.94349 | 151.17322 | 30 ft | 22 kts | 168° |
| 2026-05-06 00:40 | -33.94505 | 151.17362 | 31 ft | 24 kts | 168° |
| 2026-05-06 00:40 | -33.94675 | 151.17405 | 31 ft | 25 kts | 168° |
| 2026-05-06 00:40 | -33.94846 | 151.17449 | 30 ft | 26 kts | 168° |
| 2026-05-06 00:40 | -33.95018 | 151.17493 | 31 ft | 24 kts | 168° |
| 2026-05-06 00:41 | -33.95179 | 151.17534 | 26 ft | 24 kts | 168° |
| 2026-05-06 00:41 | -33.95335 | 151.17576 | 27 ft | 22 kts | 166° |
| 2026-05-06 00:41 | -33.95478 | 151.17614 | 28 ft | 21 kts | 167° |
| 2026-05-06 00:41 | -33.95613 | 151.17650 | 28 ft | 18 kts | 167° |
| 2026-05-06 00:42 | -33.95720 | 151.17679 | 30 ft | 15 kts | 167° |
| 2026-05-06 00:42 | -33.95827 | 151.17707 | 28 ft | 17 kts | 167° |
| 2026-05-06 00:42 | -33.95963 | 151.17740 | 28 ft | 22 kts | 167° |
| 2026-05-06 00:42 | -33.96119 | 151.17780 | 29 ft | 25 kts | 168° |
| 2026-05-06 00:43 | -33.96296 | 151.17826 | 27 ft | 25 kts | 168° |
| 2026-05-06 00:43 | -33.96425 | 151.17885 | 28 ft | 17 kts | 129° |
| 2026-05-06 00:43 | -33.96423 | 151.18003 | 29 ft | 14 kts | 69° |
| 2026-05-06 00:43 | -33.96345 | 151.18041 | 29 ft | 13 kts | 354° |
| 2026-05-06 00:44 | -33.96222 | 151.18014 | 26 ft | 34 kts | 348° |
| 2026-05-06 00:44 | -33.95769 | 151.17900 | 28 ft | 97 kts | 348° |
| 2026-05-06 00:44 | -33.94927 | 151.17678 | 27 ft | 152 kts | 348° |
| 2026-05-06 00:44 | -33.93728 | 151.17379 | 125 ft | 185 kts | 353° |
| 2026-05-06 00:45 | -33.92551 | 151.17022 | 814 ft | 168 kts | 346° |
| 2026-05-06 00:45 | -33.91372 | 151.16601 | 1039 ft | 187 kts | 334° |
| 2026-05-06 00:45 | -33.90301 | 151.15650 | 1418 ft | 198 kts | 312° |
| 2026-05-06 00:45 | -33.89368 | 151.14396 | 1903 ft | 207 kts | 310° |
| 2026-05-06 00:46 | -33.88382 | 151.13094 | 2431 ft | 212 kts | 318° |
| 2026-05-06 00:46 | -33.87034 | 151.12242 | 2763 ft | 229 kts | 339° |
| 2026-05-06 00:46 | -33.85569 | 151.11287 | 3101 ft | 253 kts | 325° |
| 2026-05-06 00:46 | -33.84244 | 151.09808 | 3772 ft | 262 kts | 313° |
| 2026-05-06 00:47 | -33.83076 | 151.08126 | 4658 ft | 262 kts | 312° |
| 2026-05-06 00:47 | -33.81868 | 151.06469 | 5493 ft | 264 kts | 315° |
| 2026-05-06 00:47 | -33.80611 | 151.04850 | 6324 ft | 265 kts | 315° |
| 2026-05-06 00:47 | -33.79348 | 151.03226 | 7119 ft | 267 kts | 314° |
| 2026-05-06 00:48 | -33.78081 | 151.01570 | 7831 ft | 271 kts | 314° |
| 2026-05-06 00:48 | -33.76795 | 150.99884 | 8548 ft | 275 kts | 313° |
| 2026-05-06 00:48 | -33.75507 | 150.98203 | 9272 ft | 279 kts | 313° |
| 2026-05-06 00:48 | -33.74185 | 150.96480 | 10007 ft | 282 kts | 312° |
| 2026-05-06 00:49 | -33.72820 | 150.94701 | 10380 ft | 300 kts | 312° |
| 2026-05-06 00:49 | -33.71341 | 150.92774 | 10435 ft | 327 kts | 312° |
| 2026-05-06 00:49 | -33.69524 | 150.91025 | 10513 ft | 348 kts | 334° |
| 2026-05-06 00:49 | -33.67115 | 150.90257 | 10654 ft | 371 kts | 356° |
| 2026-05-06 00:50 | -33.64552 | 150.90662 | 11359 ft | 376 kts | 17° |
| 2026-05-06 00:50 | -33.62216 | 150.92107 | 12004 ft | 383 kts | 37° |
| 2026-05-06 00:50 | -33.60373 | 150.94447 | 12662 ft | 391 kts | 56° |
| 2026-05-06 00:50 | -33.59234 | 150.97428 | 13305 ft | 398 kts | 74° |
| 2026-05-06 00:51 | -33.58922 | 151.00745 | 13943 ft | 405 kts | 92° |
| 2026-05-06 00:51 | -33.59434 | 151.04075 | 14489 ft | 410 kts | 106° |
| 2026-05-06 00:51 | -33.60349 | 151.07342 | 15067 ft | 414 kts | 109° |
| 2026-05-06 00:51 | -33.61287 | 151.10619 | 15623 ft | 418 kts | 107° |
| 2026-05-06 00:52 | -33.62063 | 151.13951 | 16159 ft | 421 kts | 102° |
| 2026-05-06 00:52 | -33.62472 | 151.17443 | 16678 ft | 425 kts | 93° |
| 2026-05-06 00:52 | -33.62560 | 151.21000 | 17232 ft | 428 kts | 90° |
| 2026-05-06 00:52 | -33.62588 | 151.24587 | 17742 ft | 432 kts | 91° |
| 2026-05-06 00:53 | -33.62783 | 151.28202 | 18269 ft | 436 kts | 96° |
| 2026-05-06 00:53 | -33.63099 | 151.31834 | 18718 ft | 439 kts | 95° |
| 2026-05-06 00:53 | -33.63346 | 151.35496 | 19191 ft | 442 kts | 93° |
| 2026-05-06 00:53 | -33.63521 | 151.39191 | 19618 ft | 445 kts | 93° |
| 2026-05-06 00:54 | -33.63722 | 151.42911 | 20056 ft | 448 kts | 94° |
| 2026-05-06 00:54 | -33.63964 | 151.46651 | 20508 ft | 451 kts | 94° |
| 2026-05-06 00:54 | -33.64202 | 151.50469 | 20919 ft | 454 kts | 92° |
| 2026-05-06 00:54 | -33.64059 | 151.54250 | 21308 ft | 455 kts | 79° |
| 2026-05-06 00:55 | -33.63237 | 151.57861 | 21689 ft | 456 kts | 66° |
| 2026-05-06 00:55 | -33.61744 | 151.61270 | 22092 ft | 456 kts | 53° |
| 2026-05-06 00:55 | -33.59735 | 151.64128 | 22475 ft | 455 kts | 40° |
| 2026-05-06 00:55 | -33.57209 | 151.66470 | 22850 ft | 453 kts | 31° |
| 2026-05-06 00:56 | -33.54598 | 151.68535 | 23159 ft | 457 kts | 31° |
| 2026-05-06 00:56 | -33.51924 | 151.70618 | 23531 ft | 459 kts | 30° |
| 2026-05-06 00:56 | -33.49138 | 151.72477 | 23845 ft | 458 kts | 19° |
| 2026-05-06 00:56 | -33.46110 | 151.73650 | 24142 ft | 457 kts | 12° |
| 2026-05-06 00:57 | -33.43032 | 151.74645 | 24432 ft | 459 kts | 12° |
| 2026-05-06 00:57 | -33.39945 | 151.75629 | 24752 ft | 460 kts | 12° |
| 2026-05-06 00:57 | -33.36847 | 151.76629 | 25015 ft | 462 kts | 12° |
| 2026-05-06 00:57 | -33.33737 | 151.77642 | 25263 ft | 464 kts | 12° |
| 2026-05-06 00:58 | -33.30624 | 151.78652 | 25585 ft | 465 kts | 12° |
| 2026-05-06 00:58 | -33.27498 | 151.79656 | 25867 ft | 466 kts | 11° |
| 2026-05-06 00:58 | -33.24354 | 151.80668 | 26146 ft | 468 kts | 11° |
| 2026-05-06 00:58 | -33.21202 | 151.81687 | 26421 ft | 470 kts | 11° |
| 2026-05-06 00:59 | -33.18043 | 151.82706 | 26689 ft | 471 kts | 11° |
| 2026-05-06 00:59 | -33.14873 | 151.83726 | 26950 ft | 473 kts | 11° |
| 2026-05-06 00:59 | -33.11692 | 151.84748 | 27201 ft | 474 kts | 11° |
| 2026-05-06 00:59 | -33.08491 | 151.85777 | 27485 ft | 476 kts | 11° |
| 2026-05-06 01:00 | -33.05287 | 151.86806 | 27724 ft | 477 kts | 11° |
| 2026-05-06 01:00 | -33.02119 | 151.87823 | 27971 ft | 479 kts | 11° |
| 2026-05-06 01:00 | -32.98895 | 151.88857 | 28221 ft | 480 kts | 10° |
| 2026-05-06 01:00 | -32.95662 | 151.89893 | 28442 ft | 482 kts | 10° |
| 2026-05-06 01:01 | -32.92419 | 151.90932 | 28677 ft | 483 kts | 10° |
| 2026-05-06 01:01 | -32.89165 | 151.91973 | 28871 ft | 485 kts | 10° |
| 2026-05-06 01:01 | -32.85900 | 151.93017 | 29086 ft | 486 kts | 10° |
| 2026-05-06 01:01 | -32.82626 | 151.94063 | 29321 ft | 487 kts | 9° |
| 2026-05-06 01:02 | -32.79348 | 151.95109 | 29529 ft | 489 kts | 9° |
| 2026-05-06 01:02 | -32.76059 | 151.96159 | 29743 ft | 490 kts | 9° |
| 2026-05-06 01:02 | -32.72765 | 151.97209 | 29939 ft | 491 kts | 9° |
| 2026-05-06 01:02 | -32.69462 | 151.98261 | 30128 ft | 492 kts | 9° |
| 2026-05-06 01:03 | -32.66143 | 151.99317 | 30302 ft | 494 kts | 9° |
| 2026-05-06 01:03 | -32.62814 | 152.00376 | 30466 ft | 495 kts | 9° |
| 2026-05-06 01:03 | -32.59488 | 152.01433 | 30619 ft | 496 kts | 9° |
| 2026-05-06 01:03 | -32.56148 | 152.02493 | 30785 ft | 497 kts | 9° |
| 2026-05-06 01:04 | -32.52804 | 152.03555 | 30992 ft | 497 kts | 9° |
| 2026-05-06 01:04 | -32.49469 | 152.04613 | 31208 ft | 496 kts | 9° |
| 2026-05-06 01:04 | -32.46138 | 152.05668 | 31416 ft | 495 kts | 9° |
| 2026-05-06 01:04 | -32.42844 | 152.06710 | 31578 ft | 495 kts | 9° |
| 2026-05-06 01:05 | -32.39505 | 152.07766 | 31775 ft | 495 kts | 8° |
| 2026-05-06 01:05 | -32.36180 | 152.08818 | 31963 ft | 495 kts | 8° |
| 2026-05-06 01:05 | -32.32854 | 152.09869 | 32182 ft | 494 kts | 8° |
| 2026-05-06 01:05 | -32.29527 | 152.10919 | 32397 ft | 494 kts | 8° |
| 2026-05-06 01:06 | -32.26208 | 152.11965 | 32605 ft | 493 kts | 8° |
| 2026-05-06 01:06 | -32.24015 | 152.12656 | 32757 ft | 493 kts | 8° |
| 2026-05-06 01:06 | -32.20698 | 152.13701 | 32903 ft | 493 kts | 8° |
| 2026-05-06 01:06 | -32.17380 | 152.14745 | 33081 ft | 493 kts | 8° |
| 2026-05-06 01:07 | -32.14068 | 152.15786 | 33286 ft | 492 kts | 7° |
| 2026-05-06 01:07 | -32.10760 | 152.16826 | 33476 ft | 492 kts | 7° |
| 2026-05-06 01:07 | -32.07450 | 152.17866 | 33688 ft | 491 kts | 7° |
| 2026-05-06 01:07 | -32.04149 | 152.18902 | 33888 ft | 490 kts | 7° |
| 2026-05-06 01:08 | -32.00852 | 152.19935 | 34038 ft | 490 kts | 7° |
| 2026-05-06 01:08 | -31.97556 | 152.20968 | 34225 ft | 490 kts | 7° |
| 2026-05-06 01:08 | -31.94300 | 152.21988 | 34359 ft | 489 kts | 7° |
| 2026-05-06 01:08 | -31.91009 | 152.23016 | 34477 ft | 490 kts | 7° |
| 2026-05-06 01:09 | -31.87716 | 152.24046 | 34623 ft | 489 kts | 7° |
| 2026-05-06 01:09 | -31.84427 | 152.25075 | 34760 ft | 489 kts | 7° |
| 2026-05-06 01:09 | -31.81138 | 152.26101 | 34918 ft | 489 kts | 7° |
| 2026-05-06 01:10 | -31.74565 | 152.28151 | 35155 ft | 488 kts | 6° |
| 2026-05-06 01:10 | -31.67968 | 152.30202 | 35166 ft | 490 kts | 6° |
| 2026-05-06 01:11 | -31.61396 | 152.32250 | 35166 ft | 488 kts | 6° |
| 2026-05-06 01:11 | -31.54837 | 152.34283 | 35157 ft | 487 kts | 6° |
| 2026-05-06 01:12 | -31.48287 | 152.36315 | 35153 ft | 486 kts | 6° |
| 2026-05-06 01:12 | -31.41745 | 152.38337 | 35163 ft | 487 kts | 6° |
| 2026-05-06 01:13 | -31.35230 | 152.40354 | 35155 ft | 487 kts | 6° |
| 2026-05-06 01:13 | -31.28645 | 152.42387 | 35160 ft | 486 kts | 5° |
| 2026-05-06 01:14 | -31.18819 | 152.45414 | 35160 ft | 487 kts | 5° |
| 2026-05-06 01:14 | -31.12308 | 152.47416 | 35162 ft | 486 kts | 5° |
| 2026-05-06 01:15 | -31.05773 | 152.49423 | 35165 ft | 486 kts | 5° |
| 2026-05-06 01:15 | -30.99220 | 152.51431 | 35163 ft | 487 kts | 5° |
| 2026-05-06 01:16 | -30.92667 | 152.53440 | 35165 ft | 487 kts | 5° |
| 2026-05-06 01:16 | -30.86114 | 152.55443 | 35165 ft | 487 kts | 5° |
| 2026-05-06 01:17 | -30.79564 | 152.57462 | 35167 ft | 488 kts | 8° |
| 2026-05-06 01:17 | -30.73060 | 152.59832 | 35175 ft | 490 kts | 8° |
| 2026-05-06 01:18 | -30.66546 | 152.62194 | 35176 ft | 491 kts | 8° |
| 2026-05-06 01:18 | -30.60021 | 152.64558 | 35174 ft | 491 kts | 8° |
| 2026-05-06 01:19 | -30.53497 | 152.66921 | 35174 ft | 492 kts | 8° |
| 2026-05-06 01:19 | -30.46998 | 152.69268 | 35166 ft | 491 kts | 8° |
| 2026-05-06 01:20 | -30.40475 | 152.71622 | 35173 ft | 491 kts | 8° |
| 2026-05-06 01:20 | -30.33968 | 152.73969 | 35180 ft | 487 kts | 7° |
| 2026-05-06 01:21 | -30.27465 | 152.76303 | 35179 ft | 491 kts | 8° |
| 2026-05-06 01:21 | -30.20930 | 152.78657 | 35179 ft | 492 kts | 8° |
| 2026-05-06 01:22 | -30.14403 | 152.80997 | 35164 ft | 491 kts | 8° |
| 2026-05-06 01:22 | -30.07873 | 152.83337 | 35160 ft | 491 kts | 8° |
| 2026-05-06 01:23 | -30.01344 | 152.85673 | 35162 ft | 491 kts | 8° |
| 2026-05-06 01:23 | -29.94808 | 152.88008 | 35163 ft | 491 kts | 8° |
| 2026-05-06 01:24 | -29.88284 | 152.90337 | 35159 ft | 491 kts | 8° |
| 2026-05-06 01:24 | -29.81793 | 152.92649 | 35158 ft | 491 kts | 8° |
| 2026-05-06 01:25 | -29.75258 | 152.94975 | 35158 ft | 492 kts | 8° |
| 2026-05-06 01:25 | -29.68703 | 152.97303 | 35126 ft | 493 kts | 8° |
| 2026-05-06 01:26 | -29.62164 | 152.99626 | 35155 ft | 491 kts | 8° |
| 2026-05-06 01:26 | -29.55619 | 153.01943 | 35157 ft | 491 kts | 8° |
| 2026-05-06 01:27 | -29.49080 | 153.04258 | 35155 ft | 492 kts | 8° |
| 2026-05-06 01:27 | -29.42536 | 153.06571 | 35159 ft | 491 kts | 8° |
| 2026-05-06 01:28 | -29.35997 | 153.08879 | 35155 ft | 491 kts | 8° |
| 2026-05-06 01:28 | -29.29459 | 153.11183 | 35154 ft | 491 kts | 8° |
| 2026-05-06 01:29 | -29.22921 | 153.13485 | 35147 ft | 491 kts | 8° |
| 2026-05-06 01:29 | -29.16378 | 153.15787 | 35153 ft | 492 kts | 7° |
| 2026-05-06 01:30 | -29.09825 | 153.18088 | 35161 ft | 493 kts | 7° |
| 2026-05-06 01:30 | -29.03265 | 153.20390 | 35160 ft | 493 kts | 7° |
| 2026-05-06 01:31 | -28.96757 | 153.22670 | 35159 ft | 492 kts | 7° |
| 2026-05-06 01:31 | -28.90228 | 153.24954 | 35153 ft | 491 kts | 7° |
| 2026-05-06 01:32 | -28.83685 | 153.27239 | 35151 ft | 492 kts | 7° |
| 2026-05-06 01:32 | -28.77131 | 153.29528 | 35154 ft | 493 kts | 7° |
| 2026-05-06 01:33 | -28.70583 | 153.31810 | 35145 ft | 491 kts | 7° |
| 2026-05-06 01:33 | -28.64036 | 153.34087 | 35160 ft | 492 kts | 7° |
| 2026-05-06 01:34 | -28.57492 | 153.36363 | 35150 ft | 492 kts | 7° |
| 2026-05-06 01:34 | -28.50942 | 153.38636 | 35141 ft | 492 kts | 7° |
| 2026-05-06 01:35 | -28.44400 | 153.40905 | 35136 ft | 492 kts | 6° |
| 2026-05-06 01:35 | -28.37825 | 153.43178 | 35136 ft | 495 kts | 6° |
| 2026-05-06 01:36 | -28.31266 | 153.45450 | 35138 ft | 497 kts | 6° |
| 2026-05-06 01:36 | -28.24658 | 153.47731 | 35129 ft | 495 kts | 7° |
| 2026-05-06 01:37 | -28.18150 | 153.50373 | 35149 ft | 508 kts | 17° |
| 2026-05-06 01:37 | -28.15064 | 153.52441 | 35152 ft | 523 kts | 26° |
| 2026-05-06 01:37 | -28.12192 | 153.55050 | 35153 ft | 534 kts | 31° |
| 2026-05-06 01:38 | -28.06591 | 153.60574 | 35141 ft | 533 kts | 32° |
| 2026-05-06 01:38 | -28.01002 | 153.66083 | 35134 ft | 531 kts | 31° |
| 2026-05-06 01:39 | -27.98354 | 153.69048 | 35154 ft | 542 kts | 41° |
| 2026-05-06 01:39 | -27.96081 | 153.72520 | 35148 ft | 555 kts | 52° |
| 2026-05-06 01:39 | -27.94279 | 153.76431 | 35148 ft | 567 kts | 62° |
| 2026-05-06 01:39 | -27.93029 | 153.80688 | 35149 ft | 576 kts | 73° |
| 2026-05-06 01:40 | -27.92399 | 153.85126 | 35151 ft | 583 kts | 84° |
| 2026-05-06 01:40 | -27.92416 | 153.89717 | 35150 ft | 587 kts | 95° |
| 2026-05-06 01:40 | -27.93105 | 153.94266 | 35151 ft | 588 kts | 106° |
| 2026-05-06 01:40 | -27.94448 | 153.98627 | 35154 ft | 586 kts | 117° |
| 2026-05-06 01:41 | -27.97825 | 154.07016 | 35127 ft | 585 kts | 116° |
| 2026-05-06 01:41 | -28.01236 | 154.15360 | 35122 ft | 583 kts | 116° |
| 2026-05-06 01:42 | -28.04468 | 154.23391 | 35122 ft | 584 kts | 116° |
| 2026-05-06 01:42 | -28.07859 | 154.31756 | 35118 ft | 585 kts | 116° |
| 2026-05-06 01:43 | -28.11239 | 154.40161 | 35117 ft | 585 kts | 116° |
| 2026-05-06 01:43 | -28.14609 | 154.48530 | 35114 ft | 582 kts | 116° |
| 2026-05-06 01:44 | -28.17961 | 154.56890 | 35114 ft | 583 kts | 116° |
| 2026-05-06 01:44 | -28.21316 | 154.65265 | 35113 ft | 584 kts | 116° |
| 2026-05-06 01:45 | -28.24670 | 154.73659 | 35110 ft | 584 kts | 116° |
| 2026-05-06 01:45 | -28.27998 | 154.82005 | 35111 ft | 584 kts | 116° |
| 2026-05-06 01:46 | -28.31345 | 154.90417 | 35111 ft | 584 kts | 116° |
| 2026-05-06 01:46 | -28.34682 | 154.98823 | 35115 ft | 584 kts | 116° |
| 2026-05-06 01:47 | -28.38009 | 155.07222 | 35099 ft | 582 kts | 116° |
| 2026-05-06 01:47 | -28.41329 | 155.15620 | 35094 ft | 581 kts | 116° |
| 2026-05-06 01:48 | -28.44633 | 155.23997 | 35095 ft | 582 kts | 116° |
| 2026-05-06 01:48 | -28.47938 | 155.32395 | 35097 ft | 582 kts | 116° |
| 2026-05-06 01:49 | -28.51241 | 155.40806 | 35099 ft | 583 kts | 116° |
| 2026-05-06 01:49 | -28.54539 | 155.49223 | 35099 ft | 583 kts | 116° |
| 2026-05-06 01:50 | -28.57816 | 155.57604 | 35098 ft | 583 kts | 116° |
| 2026-05-06 01:50 | -28.61108 | 155.66044 | 35094 ft | 583 kts | 116° |
| 2026-05-06 01:51 | -28.64395 | 155.74486 | 35093 ft | 583 kts | 116° |
| 2026-05-06 01:51 | -28.67671 | 155.82921 | 35092 ft | 582 kts | 115° |
| 2026-05-06 01:52 | -28.70940 | 155.91358 | 35103 ft | 582 kts | 115° |
| 2026-05-06 01:52 | -28.74191 | 155.99766 | 35084 ft | 578 kts | 115° |
| 2026-05-06 01:53 | -28.77427 | 156.08151 | 35085 ft | 578 kts | 115° |
| 2026-05-06 01:53 | -28.80664 | 156.16561 | 35086 ft | 579 kts | 115° |
| 2026-05-06 01:54 | -28.83899 | 156.24983 | 35089 ft | 580 kts | 115° |
| 2026-05-06 01:54 | -28.87102 | 156.33340 | 35097 ft | 578 kts | 115° |
| 2026-05-06 01:55 | -28.90317 | 156.41747 | 35089 ft | 576 kts | 115° |
| 2026-05-06 01:55 | -28.91923 | 156.45950 | 34915 ft | 575 kts | 115° |
| 2026-05-06 01:55 | -28.93515 | 156.50130 | 34670 ft | 575 kts | 115° |
| 2026-05-06 01:56 | -28.95112 | 156.54329 | 34447 ft | 574 kts | 115° |
| 2026-05-06 01:56 | -28.96700 | 156.58500 | 34220 ft | 573 kts | 115° |
| 2026-05-06 01:56 | -28.98178 | 156.62715 | 34001 ft | 572 kts | 106° |
| 2026-05-06 01:56 | -28.99038 | 156.67135 | 33703 ft | 570 kts | 95° |
| 2026-05-06 01:57 | -28.99221 | 156.71645 | 33379 ft | 567 kts | 83° |
| 2026-05-06 01:57 | -28.98750 | 156.76031 | 33104 ft | 560 kts | 72° |
| 2026-05-06 01:57 | -28.96496 | 156.84438 | 33093 ft | 553 kts | 66° |
| 2026-05-06 01:58 | -28.94023 | 156.92806 | 33091 ft | 557 kts | 66° |
| 2026-05-06 01:58 | -28.91584 | 157.01206 | 33095 ft | 559 kts | 66° |
| 2026-05-06 01:59 | -28.89099 | 157.09643 | 33084 ft | 563 kts | 66° |
| 2026-05-06 01:59 | -28.86609 | 157.18130 | 33075 ft | 564 kts | 66° |
| 2026-05-06 02:00 | -28.84111 | 157.26596 | 33079 ft | 561 kts | 66° |
| 2026-05-06 02:00 | -28.81623 | 157.35015 | 33080 ft | 560 kts | 66° |
| 2026-05-06 02:01 | -28.79127 | 157.43434 | 33076 ft | 560 kts | 66° |
| 2026-05-06 02:01 | -28.77049 | 157.50428 | 33078 ft | 560 kts | 66° |
| 2026-05-06 02:02 | -28.74548 | 157.58831 | 33077 ft | 560 kts | 66° |
| 2026-05-06 02:02 | -28.72032 | 157.67255 | 33079 ft | 561 kts | 66° |
| 2026-05-06 02:03 | -28.69513 | 157.75673 | 33071 ft | 562 kts | 66° |
| 2026-05-06 02:03 | -28.66982 | 157.84106 | 33072 ft | 563 kts | 66° |
| 2026-05-06 02:04 | -28.64469 | 157.92462 | 33069 ft | 561 kts | 66° |
| 2026-05-06 02:04 | -28.61941 | 158.00846 | 33065 ft | 559 kts | 66° |
| 2026-05-06 02:05 | -28.59411 | 158.09210 | 33065 ft | 559 kts | 66° |
| 2026-05-06 02:05 | -28.56872 | 158.17588 | 33035 ft | 560 kts | 66° |
| 2026-05-06 02:06 | -28.54320 | 158.25986 | 33075 ft | 563 kts | 66° |
| 2026-05-06 02:06 | -28.51760 | 158.34394 | 33076 ft | 562 kts | 66° |
| 2026-05-06 02:07 | -28.49194 | 158.42795 | 33076 ft | 562 kts | 66° |
| 2026-05-06 02:07 | -28.46625 | 158.51185 | 33075 ft | 562 kts | 66° |
| 2026-05-06 02:08 | -28.44051 | 158.59572 | 33074 ft | 562 kts | 66° |
| 2026-05-06 02:08 | -28.41471 | 158.67956 | 33073 ft | 562 kts | 66° |
| 2026-05-06 02:09 | -28.38889 | 158.76329 | 33048 ft | 562 kts | 66° |
| 2026-05-06 02:09 | -28.36312 | 158.84663 | 33069 ft | 563 kts | 66° |
| 2026-05-06 02:10 | -28.33713 | 158.93049 | 33068 ft | 563 kts | 66° |
| 2026-05-06 02:10 | -28.31109 | 159.01429 | 33066 ft | 563 kts | 66° |
| 2026-05-06 02:11 | -28.28504 | 159.09791 | 33062 ft | 562 kts | 66° |
| 2026-05-06 02:11 | -28.25894 | 159.18151 | 33066 ft | 562 kts | 66° |
| 2026-05-06 02:12 | -28.23285 | 159.26488 | 33059 ft | 559 kts | 66° |
| 2026-05-06 02:12 | -28.20676 | 159.34798 | 33035 ft | 559 kts | 66° |
| 2026-05-06 02:13 | -28.18063 | 159.43109 | 33057 ft | 561 kts | 66° |
| 2026-05-06 02:13 | -28.15436 | 159.51440 | 33058 ft | 562 kts | 66° |
| 2026-05-06 02:14 | -28.12806 | 159.59765 | 33054 ft | 560 kts | 66° |
| 2026-05-06 02:14 | -28.10177 | 159.68056 | 33061 ft | 559 kts | 66° |
| 2026-05-06 02:15 | -28.07547 | 159.76345 | 33057 ft | 559 kts | 65° |
| 2026-05-06 02:15 | -28.04929 | 159.84566 | 33061 ft | 559 kts | 65° |
| 2026-05-06 02:16 | -28.02286 | 159.92851 | 33026 ft | 559 kts | 66° |
| 2026-05-06 02:16 | -27.99624 | 160.01172 | 33066 ft | 565 kts | 66° |
| 2026-05-06 02:17 | -27.96945 | 160.09548 | 33063 ft | 565 kts | 66° |
| 2026-05-06 02:17 | -27.94267 | 160.17892 | 33060 ft | 563 kts | 66° |
| 2026-05-06 02:18 | -27.91597 | 160.26193 | 33048 ft | 561 kts | 66° |
| 2026-05-06 02:18 | -27.88923 | 160.34487 | 33052 ft | 562 kts | 66° |
| 2026-05-06 02:19 | -27.86236 | 160.42803 | 33060 ft | 564 kts | 66° |
| 2026-05-06 02:19 | -27.83554 | 160.51085 | 33065 ft | 564 kts | 66° |
| 2026-05-06 02:20 | -27.79496 | 160.63576 | 33052 ft | 565 kts | 66° |
| 2026-05-06 02:21 | -27.76777 | 160.71924 | 33059 ft | 566 kts | 66° |
| 2026-05-06 02:21 | -27.74053 | 160.80266 | 33058 ft | 565 kts | 66° |
| 2026-05-06 02:22 | -27.71345 | 160.88537 | 33060 ft | 564 kts | 66° |
| 2026-05-06 02:22 | -27.68632 | 160.96812 | 33058 ft | 560 kts | 66° |
| 2026-05-06 02:23 | -27.65921 | 161.05051 | 33053 ft | 561 kts | 66° |
| 2026-05-06 02:23 | -27.63199 | 161.13311 | 33036 ft | 562 kts | 66° |
| 2026-05-06 02:24 | -27.60450 | 161.21628 | 33059 ft | 568 kts | 66° |
| 2026-05-06 02:24 | -27.57698 | 161.29948 | 33056 ft | 563 kts | 66° |
| 2026-05-06 02:25 | -27.54956 | 161.38206 | 33052 ft | 562 kts | 66° |
| 2026-05-06 02:25 | -27.52210 | 161.46460 | 33054 ft | 563 kts | 66° |
| 2026-05-06 02:26 | -27.49476 | 161.54664 | 33055 ft | 563 kts | 66° |
| 2026-05-06 02:26 | -27.41574 | 161.78262 | 33063 ft | 564 kts | 66° |
| 2026-05-06 02:27 | -27.29950 | 162.12707 | 33062 ft | 563 kts | 66° |
| 2026-05-06 02:27 | -27.19130 | 162.44493 | 33168 ft | 560 kts | 66° |
| 2026-05-06 02:27 | -27.16005 | 162.53592 | 33073 ft | 565 kts | 66° |
| 2026-05-06 02:28 | -27.04722 | 162.86372 | 33074 ft | 563 kts | 66° |
| 2026-05-06 02:28 | -26.98733 | 163.02921 | 33082 ft | 561 kts | 60° |
| 2026-05-06 02:29 | -26.95237 | 163.10771 | 33078 ft | 564 kts | 60° |
| 2026-05-06 02:29 | -26.93499 | 163.14715 | 33189 ft | 565 kts | 60° |
| 2026-05-06 02:29 | -26.91766 | 163.18669 | 33377 ft | 565 kts | 60° |
| 2026-05-06 02:29 | -26.90016 | 163.22622 | 33524 ft | 565 kts | 59° |
| 2026-05-06 02:30 | -26.88260 | 163.26565 | 33682 ft | 565 kts | 60° |
| 2026-05-06 02:30 | -26.86509 | 163.30510 | 33848 ft | 566 kts | 60° |
| 2026-05-06 02:30 | -26.84764 | 163.34454 | 33995 ft | 566 kts | 60° |
| 2026-05-06 02:30 | -26.83013 | 163.38400 | 34138 ft | 566 kts | 59° |
| 2026-05-06 02:31 | -26.81256 | 163.42343 | 34253 ft | 566 kts | 59° |
| 2026-05-06 02:31 | -26.79524 | 163.46230 | 34372 ft | 566 kts | 59° |
| 2026-05-06 02:31 | -26.77768 | 163.50178 | 34490 ft | 567 kts | 59° |
| 2026-05-06 02:31 | -26.75988 | 163.54173 | 34613 ft | 567 kts | 59° |
| 2026-05-06 02:32 | -26.74247 | 163.58072 | 34723 ft | 567 kts | 59° |
| 2026-05-06 02:32 | -26.72480 | 163.62023 | 34840 ft | 567 kts | 59° |
| 2026-05-06 02:32 | -26.70715 | 163.65971 | 34950 ft | 568 kts | 59° |
| 2026-05-06 02:32 | -26.68948 | 163.69922 | 35064 ft | 568 kts | 59° |
| 2026-05-06 02:33 | -26.67172 | 163.73886 | 35069 ft | 570 kts | 59° |
| 2026-05-06 02:33 | -26.65996 | 163.76508 | 35065 ft | 570 kts | 59° |
| 2026-05-06 02:34 | -26.60082 | 163.89676 | 35067 ft | 567 kts | 59° |
| 2026-05-06 02:34 | -26.56541 | 163.97539 | 35071 ft | 566 kts | 59° |
| 2026-05-06 02:35 | -26.52992 | 164.05407 | 35070 ft | 568 kts | 59° |
| 2026-05-06 02:35 | -26.49429 | 164.13292 | 35075 ft | 570 kts | 59° |
| 2026-05-06 02:36 | -26.45854 | 164.21188 | 35077 ft | 570 kts | 59° |
| 2026-05-06 02:36 | -26.42280 | 164.29068 | 35078 ft | 569 kts | 59° |
| 2026-05-06 02:37 | -26.38699 | 164.36948 | 35079 ft | 569 kts | 59° |
| 2026-05-06 02:37 | -26.35124 | 164.44802 | 35077 ft | 568 kts | 59° |
| 2026-05-06 02:38 | -26.31550 | 164.52638 | 35061 ft | 567 kts | 59° |
| 2026-05-06 02:38 | -26.27967 | 164.60479 | 35076 ft | 569 kts | 59° |
| 2026-05-06 02:39 | -26.24373 | 164.68332 | 35087 ft | 569 kts | 59° |
| 2026-05-06 02:39 | -26.20791 | 164.76143 | 35087 ft | 569 kts | 59° |
| 2026-05-06 02:40 | -26.17187 | 164.83990 | 35085 ft | 569 kts | 59° |
| 2026-05-06 02:40 | -26.13584 | 164.91819 | 35083 ft | 568 kts | 59° |
| 2026-05-06 02:41 | -26.09978 | 164.99641 | 35084 ft | 568 kts | 59° |
| 2026-05-06 02:41 | -26.06372 | 165.07449 | 35070 ft | 568 kts | 59° |
| 2026-05-06 02:42 | -26.02748 | 165.15282 | 35076 ft | 569 kts | 59° |
| 2026-05-06 02:42 | -25.99123 | 165.23103 | 35077 ft | 569 kts | 59° |
| 2026-05-06 02:43 | -25.95488 | 165.30930 | 35078 ft | 570 kts | 59° |
| 2026-05-06 02:43 | -25.91851 | 165.38749 | 35081 ft | 570 kts | 59° |
| 2026-05-06 02:44 | -25.88207 | 165.46570 | 35083 ft | 570 kts | 59° |
| 2026-05-06 02:44 | -25.84581 | 165.54338 | 35081 ft | 570 kts | 59° |
| 2026-05-06 02:45 | -25.80927 | 165.62152 | 35067 ft | 570 kts | 59° |
| 2026-05-06 02:45 | -25.77264 | 165.69972 | 35069 ft | 572 kts | 59° |
| 2026-05-06 02:46 | -25.73594 | 165.77793 | 35069 ft | 571 kts | 59° |
| 2026-05-06 02:46 | -25.69925 | 165.85599 | 35069 ft | 569 kts | 59° |
| 2026-05-06 02:47 | -25.66266 | 165.93368 | 35065 ft | 567 kts | 59° |
| 2026-05-06 02:47 | -25.62620 | 166.01099 | 35066 ft | 565 kts | 59° |
| 2026-05-06 02:48 | -25.54127 | 166.19051 | 35233 ft | 563 kts | 59° |
| 2026-05-06 02:48 | -25.44435 | 166.39444 | 35069 ft | 564 kts | 59° |
| 2026-05-06 02:48 | -25.37111 | 166.54803 | 35075 ft | 564 kts | 59° |
| 2026-05-06 02:49 | -25.24790 | 166.80522 | 35075 ft | 565 kts | 59° |
| 2026-05-06 02:49 | -25.07640 | 167.16076 | 35053 ft | 565 kts | 59° |
| 2026-05-06 02:50 | -24.95323 | 167.41440 | 35069 ft | 564 kts | 59° |
| 2026-05-06 02:50 | -24.80462 | 167.71855 | 35061 ft | 562 kts | 59° |
| 2026-05-06 02:50 | -24.70266 | 167.84504 | 35073 ft | 554 kts | 42° |
| 2026-05-06 02:51 | -24.59666 | 167.96842 | 35078 ft | 554 kts | 42° |
| 2026-05-06 02:51 | -24.38459 | 168.21269 | 35055 ft | 551 kts | 42° |
| 2026-05-06 02:52 | -24.17199 | 168.45583 | 35066 ft | 552 kts | 43° |
| 2026-05-06 02:52 | -23.95914 | 168.69799 | 35054 ft | 551 kts | 43° |
| 2026-05-06 02:53 | -23.74512 | 168.94025 | 35059 ft | 554 kts | 42° |
| 2026-05-06 02:53 | -23.41841 | 169.30775 | 35094 ft | 551 kts | 42° |
| 2026-05-06 02:54 | -23.20422 | 169.54716 | 35049 ft | 558 kts | 43° |
| 2026-05-06 02:54 | -22.98699 | 169.78878 | 35031 ft | 559 kts | 43° |
| 2026-05-06 02:55 | -22.76893 | 170.03014 | 35018 ft | 560 kts | 43° |
| 2026-05-06 02:55 | -22.54996 | 170.27134 | 35024 ft | 563 kts | 43° |
| 2026-05-06 02:56 | -22.33014 | 170.51229 | 35013 ft | 563 kts | 43° |
| 2026-05-06 02:56 | -22.10913 | 170.75341 | 35005 ft | 564 kts | 43° |
| 2026-05-06 02:57 | -21.91819 | 170.96080 | 35015 ft | 568 kts | 43° |
| 2026-05-06 02:57 | -21.69690 | 171.20012 | 34993 ft | 567 kts | 43° |
| 2026-05-06 02:58 | -21.46865 | 171.44580 | 35001 ft | 567 kts | 43° |
| 2026-05-06 02:58 | -21.24511 | 171.68526 | 34895 ft | 570 kts | 43° |
| 2026-05-06 02:58 | -21.09580 | 171.84465 | 34894 ft | 570 kts | 43° |
| 2026-05-06 02:58 | -20.88584 | 172.06787 | 35024 ft | 567 kts | 43° |
| 2026-05-06 02:59 | -20.77355 | 172.18697 | 34975 ft | 568 kts | 43° |
| 2026-05-06 02:59 | -20.54866 | 172.42460 | 34969 ft | 567 kts | 43° |
| 2026-05-06 03:00 | -20.32430 | 172.66062 | 34960 ft | 566 kts | 43° |
| 2026-05-06 03:00 | -20.10134 | 172.89417 | 34969 ft | 566 kts | 43° |
| 2026-05-06 03:01 | -19.87638 | 173.12877 | 34953 ft | 565 kts | 43° |
| 2026-05-06 03:01 | -19.65074 | 173.36307 | 34941 ft | 566 kts | 43° |
| 2026-05-06 03:02 | -19.42528 | 173.59621 | 34942 ft | 566 kts | 43° |
| 2026-05-06 03:02 | -19.20020 | 173.82801 | 34932 ft | 564 kts | 43° |
| 2026-05-06 03:03 | -18.97490 | 174.05910 | 35190 ft | 563 kts | 43° |
| 2026-05-06 03:03 | -18.86392 | 174.17259 | 36297 ft | 552 kts | 43° |
| 2026-05-06 03:03 | -18.75284 | 174.28597 | 36464 ft | 561 kts | 43° |
| 2026-05-06 03:04 | -18.52928 | 174.51349 | 36063 ft | 543 kts | 43° |
| 2026-05-06 03:04 | -18.41959 | 174.62483 | 34904 ft | 541 kts | 43° |
| 2026-05-06 03:04 | -18.30963 | 174.73620 | 34908 ft | 550 kts | 44° |
| 2026-05-06 03:05 | -18.08768 | 174.96039 | 34909 ft | 555 kts | 44° |
| 2026-05-06 03:05 | -17.86529 | 175.18419 | 34902 ft | 557 kts | 44° |
| 2026-05-06 03:06 | -17.64114 | 175.40895 | 34882 ft | 557 kts | 44° |
| 2026-05-06 03:06 | -17.41635 | 175.63353 | 34889 ft | 558 kts | 43° |
| 2026-05-06 03:07 | -17.19235 | 175.85652 | 34875 ft | 555 kts | 43° |
| 2026-05-06 03:07 | -16.96820 | 176.07889 | 34863 ft | 552 kts | 43° |
| 2026-05-06 03:08 | -16.74525 | 176.29930 | 34859 ft | 551 kts | 43° |
| 2026-05-06 03:08 | -16.52288 | 176.51840 | 34861 ft | 549 kts | 43° |
| 2026-05-06 03:09 | -16.30033 | 176.73693 | 34856 ft | 550 kts | 43° |
| 2026-05-06 03:09 | -16.09588 | 176.93708 | 34851 ft | 548 kts | 43° |
| 2026-05-06 03:10 | -15.87589 | 177.15176 | 34856 ft | 545 kts | 43° |
| 2026-05-06 03:10 | -15.65472 | 177.36692 | 34864 ft | 543 kts | 43° |
| 2026-05-06 03:11 | -15.43452 | 177.58048 | 34865 ft | 542 kts | 43° |
| 2026-05-06 03:11 | -15.21413 | 177.79356 | 34846 ft | 538 kts | 43° |
| 2026-05-06 03:12 | -14.99482 | 178.00481 | 34853 ft | 538 kts | 41° |
| 2026-05-06 03:12 | -14.76724 | 178.20562 | 34849 ft | 536 kts | 40° |
| 2026-05-06 03:13 | -14.54055 | 178.40544 | 34843 ft | 535 kts | 40° |
| 2026-05-06 03:13 | -14.31426 | 178.60432 | 34856 ft | 534 kts | 40° |
| 2026-05-06 03:14 | -14.08981 | 178.80103 | 34841 ft | 533 kts | 40° |
| 2026-05-06 03:14 | -13.86398 | 178.99841 | 34848 ft | 532 kts | 39° |
| 2026-05-06 03:15 | -13.63869 | 179.19480 | 34838 ft | 531 kts | 39° |
| 2026-05-06 03:15 | -13.41345 | 179.39064 | 34831 ft | 529 kts | 39° |
| 2026-05-06 03:16 | -13.18821 | 179.58599 | 34832 ft | 529 kts | 39° |
| 2026-05-06 03:16 | -12.96375 | 179.78018 | 34830 ft | 527 kts | 39° |
| 2026-05-06 03:17 | -12.73922 | 179.97395 | 34829 ft | 526 kts | 38° |
| 2026-05-06 03:17 | -12.51772 | -179.83536 | 34826 ft | 523 kts | 38° |
| 2026-05-06 03:18 | -12.29478 | -179.64386 | 34825 ft | 523 kts | 38° |
| 2026-05-06 03:18 | -12.07164 | -179.45264 | 34827 ft | 523 kts | 38° |
| 2026-05-06 03:19 | -11.84847 | -179.26182 | 34824 ft | 522 kts | 38° |
| 2026-05-06 03:19 | -11.62578 | -179.07183 | 34823 ft | 521 kts | 38° |
| 2026-05-06 03:21 | -10.83971 | -178.40439 | 34819 ft | 520 kts | 37° |
| 2026-05-06 03:21 | -10.61733 | -178.21645 | 34819 ft | 519 kts | 37° |
| 2026-05-06 03:22 | -10.39447 | -178.02846 | 34827 ft | 521 kts | 37° |
| 2026-05-06 03:22 | -10.17120 | -177.84048 | 34821 ft | 521 kts | 37° |
| 2026-05-06 03:23 | -9.94617 | -177.65586 | 34835 ft | 517 kts | 32° |
| 2026-05-06 03:23 | -9.71426 | -177.48203 | 34828 ft | 517 kts | 33° |
| 2026-05-06 03:24 | -9.48322 | -177.30904 | 34831 ft | 516 kts | 33° |
| 2026-05-06 03:24 | -9.25244 | -177.13647 | 34826 ft | 516 kts | 33° |
| 2026-05-06 03:25 | -9.02272 | -176.96498 | 34815 ft | 516 kts | 33° |
| 2026-05-06 03:25 | -8.79187 | -176.79291 | 34809 ft | 515 kts | 33° |
| 2026-05-06 03:26 | -8.56112 | -176.62120 | 34815 ft | 516 kts | 33° |
| 2026-05-06 03:26 | -8.33002 | -176.44948 | 34809 ft | 515 kts | 33° |
| 2026-05-06 03:27 | -8.09867 | -176.27784 | 34812 ft | 516 kts | 33° |
| 2026-05-06 03:27 | -7.86726 | -176.10644 | 36362 ft | 515 kts | 36° |
| 2026-05-06 03:28 | -7.75123 | -176.02052 | 34540 ft | 506 kts | 34° |
| 2026-05-06 03:28 | -7.63918 | -175.93769 | 34819 ft | 506 kts | 34° |
| 2026-05-06 03:28 | -7.40905 | -175.76766 | 34833 ft | 515 kts | 34° |
| 2026-05-06 03:29 | -7.17723 | -175.59662 | 34830 ft | 517 kts | 34° |
| 2026-05-06 03:29 | -6.94647 | -175.42659 | 34829 ft | 516 kts | 34° |
| 2026-05-06 03:30 | -6.83040 | -175.34114 | 36286 ft | 517 kts | 36° |
| 2026-05-06 03:30 | -6.71658 | -175.25741 | 34801 ft | 499 kts | 34° |
| 2026-05-06 03:30 | -6.60272 | -175.17368 | 34814 ft | 510 kts | 34° |
| 2026-05-06 03:30 | -6.48748 | -175.08900 | 34820 ft | 514 kts | 34° |
| 2026-05-06 03:31 | -6.25616 | -174.91916 | 34822 ft | 515 kts | 34° |
| 2026-05-06 03:31 | -6.02423 | -174.74907 | 34816 ft | 516 kts | 34° |
| 2026-05-06 03:32 | -5.83138 | -174.60778 | 34819 ft | 516 kts | 34° |
| 2026-05-06 03:32 | -5.59916 | -174.43780 | 34818 ft | 517 kts | 34° |
| 2026-05-06 03:33 | -5.36618 | -174.26744 | 34817 ft | 518 kts | 34° |
| 2026-05-06 03:33 | -5.13315 | -174.09721 | 34815 ft | 518 kts | 34° |
| 2026-05-06 03:34 | -5.02703 | -174.01974 | 34815 ft | 518 kts | 34° |
| 2026-05-06 03:34 | -4.97263 | -173.97255 | 34814 ft | 520 kts | 43° |
| 2026-05-06 03:35 | -4.92163 | -173.92100 | 34818 ft | 520 kts | 43° |
| 2026-05-06 03:35 | -4.87054 | -173.86963 | 34816 ft | 520 kts | 43° |
| 2026-05-06 03:36 | -4.81945 | -173.81815 | 35140 ft | 520 kts | 43° |
| 2026-05-06 03:36 | -4.79396 | -173.79247 | 35348 ft | 519 kts | 43° |
| 2026-05-06 03:36 | -4.76845 | -173.76682 | 35551 ft | 519 kts | 43° |
| 2026-05-06 03:37 | -4.74299 | -173.74120 | 35757 ft | 518 kts | 43° |
| 2026-05-06 03:37 | -4.71795 | -173.71598 | 35979 ft | 517 kts | 43° |
| 2026-05-06 03:37 | -4.69252 | -173.69039 | 36125 ft | 518 kts | 43° |
| 2026-05-06 03:37 | -4.66710 | -173.66482 | 36299 ft | 517 kts | 43° |
| 2026-05-06 03:38 | -4.64170 | -173.63927 | 36497 ft | 517 kts | 43° |
| 2026-05-06 03:38 | -4.61636 | -173.61377 | 36737 ft | 515 kts | 43° |
| 2026-05-06 03:38 | -4.56560 | -173.56272 | 36800 ft | 518 kts | 43° |
| 2026-05-06 03:39 | -4.51500 | -173.51181 | 36798 ft | 513 kts | 43° |
| 2026-05-06 03:39 | -4.46460 | -173.46116 | 36804 ft | 513 kts | 43° |
| 2026-05-06 03:40 | -4.41427 | -173.41056 | 36798 ft | 513 kts | 43° |
| 2026-05-06 03:40 | -4.36395 | -173.35999 | 36799 ft | 512 kts | 43° |
| 2026-05-06 03:41 | -4.31358 | -173.30938 | 36801 ft | 513 kts | 43° |
| 2026-05-06 03:41 | -4.26321 | -173.25878 | 36800 ft | 513 kts | 43° |
| 2026-05-06 03:42 | -4.21281 | -173.20816 | 36800 ft | 513 kts | 43° |
| 2026-05-06 03:42 | -4.16272 | -173.15786 | 36798 ft | 513 kts | 43° |
| 2026-05-06 03:43 | -4.11231 | -173.10724 | 36797 ft | 513 kts | 43° |
| 2026-05-06 03:43 | -4.06183 | -173.05657 | 36801 ft | 514 kts | 43° |
| 2026-05-06 03:44 | -4.01132 | -173.00588 | 36803 ft | 514 kts | 43° |
| 2026-05-06 03:44 | -3.96078 | -172.95516 | 36805 ft | 514 kts | 43° |
| 2026-05-06 03:45 | -3.91019 | -172.90441 | 36804 ft | 515 kts | 43° |
| 2026-05-06 03:45 | -3.85959 | -172.85365 | 36805 ft | 515 kts | 43° |
| 2026-05-06 03:46 | -3.80895 | -172.80286 | 36807 ft | 515 kts | 43° |
| 2026-05-06 03:46 | -3.75844 | -172.75219 | 36802 ft | 507 kts | 42° |
| 2026-05-06 03:47 | -3.70932 | -172.70296 | 36797 ft | 496 kts | 42° |
| 2026-05-06 03:47 | -3.66056 | -172.65411 | 36805 ft | 501 kts | 42° |
| 2026-05-06 03:48 | -3.61117 | -172.60458 | 36806 ft | 503 kts | 42° |
| 2026-05-06 03:48 | -3.56164 | -172.55496 | 36812 ft | 503 kts | 42° |
| 2026-05-06 03:49 | -3.51223 | -172.50545 | 36807 ft | 503 kts | 42° |
| 2026-05-06 03:49 | -3.46276 | -172.45590 | 36810 ft | 502 kts | 42° |
| 2026-05-06 03:50 | -3.41370 | -172.40676 | 36810 ft | 502 kts | 42° |
| 2026-05-06 03:50 | -3.36426 | -172.35725 | 36809 ft | 502 kts | 42° |
| 2026-05-06 03:51 | -3.31494 | -172.30787 | 36808 ft | 501 kts | 42° |
| 2026-05-06 03:51 | -3.26567 | -172.25855 | 36803 ft | 501 kts | 42° |
| 2026-05-06 03:52 | -3.21638 | -172.20921 | 36803 ft | 500 kts | 42° |
| 2026-05-06 03:52 | -3.16719 | -172.15997 | 36798 ft | 500 kts | 42° |
| 2026-05-06 03:53 | -3.11805 | -172.11080 | 36800 ft | 500 kts | 42° |
| 2026-05-06 03:53 | -3.06895 | -172.06167 | 36805 ft | 499 kts | 42° |
| 2026-05-06 03:54 | -3.01979 | -172.01250 | 36800 ft | 500 kts | 42° |
| 2026-05-06 03:54 | -2.97049 | -171.96317 | 36804 ft | 502 kts | 42° |
| 2026-05-06 03:55 | -2.92132 | -171.91400 | 36814 ft | 503 kts | 42° |
| 2026-05-06 03:55 | -2.87151 | -171.86419 | 36810 ft | 502 kts | 42° |
| 2026-05-06 03:56 | -2.82216 | -171.81484 | 36804 ft | 501 kts | 42° |
| 2026-05-06 03:56 | -2.77326 | -171.76595 | 36805 ft | 500 kts | 42° |
| 2026-05-06 03:57 | -2.72404 | -171.71676 | 36804 ft | 500 kts | 42° |
| 2026-05-06 03:57 | -2.67478 | -171.66752 | 36803 ft | 501 kts | 42° |
| 2026-05-06 03:58 | -2.62545 | -171.61822 | 36811 ft | 501 kts | 43° |
| 2026-05-06 03:58 | -2.57625 | -171.56905 | 36805 ft | 500 kts | 43° |
| 2026-05-06 03:59 | -2.52710 | -171.51995 | 36802 ft | 499 kts | 43° |
| 2026-05-06 03:59 | -2.47791 | -171.47081 | 36806 ft | 500 kts | 43° |
| 2026-05-06 04:00 | -2.42862 | -171.42157 | 36811 ft | 501 kts | 43° |
| 2026-05-06 04:00 | -2.37920 | -171.37220 | 36815 ft | 502 kts | 43° |
| 2026-05-06 04:01 | -2.33000 | -171.32306 | 36810 ft | 503 kts | 43° |
| 2026-05-06 04:01 | -2.28051 | -171.27364 | 36815 ft | 502 kts | 43° |
| 2026-05-06 04:02 | -2.23133 | -171.22453 | 36812 ft | 497 kts | 42° |
| 2026-05-06 04:02 | -2.18242 | -171.17571 | 36806 ft | 497 kts | 42° |
| 2026-05-06 04:03 | -2.13348 | -171.12685 | 36809 ft | 497 kts | 42° |
| 2026-05-06 04:03 | -2.08452 | -171.07798 | 36807 ft | 497 kts | 42° |
| 2026-05-06 04:04 | -2.03554 | -171.02909 | 36807 ft | 497 kts | 42° |
| 2026-05-06 04:04 | -1.98660 | -170.98025 | 36808 ft | 497 kts | 42° |
| 2026-05-06 04:05 | -1.93763 | -170.93137 | 36809 ft | 497 kts | 42° |
| 2026-05-06 04:05 | -1.88864 | -170.88248 | 36810 ft | 497 kts | 42° |
| 2026-05-06 04:06 | -1.84009 | -170.83405 | 36809 ft | 495 kts | 42° |
| 2026-05-06 04:06 | -1.79129 | -170.78536 | 36807 ft | 496 kts | 42° |
| 2026-05-06 04:07 | -1.74234 | -170.73653 | 36803 ft | 497 kts | 42° |
| 2026-05-06 04:07 | -1.69334 | -170.68765 | 36810 ft | 498 kts | 42° |
| 2026-05-06 04:08 | -1.64425 | -170.63868 | 36815 ft | 499 kts | 42° |
| 2026-05-06 04:08 | -1.59512 | -170.58968 | 36815 ft | 500 kts | 42° |
| 2026-05-06 04:09 | -1.54595 | -170.54064 | 36815 ft | 498 kts | 42° |
| 2026-05-06 04:09 | -1.49692 | -170.49175 | 36809 ft | 498 kts | 42° |
| 2026-05-06 04:10 | -1.44781 | -170.44278 | 36814 ft | 500 kts | 42° |
| 2026-05-06 04:10 | -1.39854 | -170.39365 | 36819 ft | 500 kts | 42° |
| 2026-05-06 04:11 | -1.34932 | -170.34457 | 36814 ft | 499 kts | 42° |
| 2026-05-06 04:11 | -1.30016 | -170.29556 | 36813 ft | 498 kts | 42° |
| 2026-05-06 04:12 | -1.25142 | -170.24697 | 36811 ft | 498 kts | 42° |
| 2026-05-06 04:12 | -1.20240 | -170.19810 | 36815 ft | 497 kts | 42° |
| 2026-05-06 04:13 | -1.15347 | -170.14933 | 36813 ft | 496 kts | 42° |
| 2026-05-06 04:13 | -1.10460 | -170.10062 | 36815 ft | 497 kts | 42° |
| 2026-05-06 04:14 | -1.05547 | -170.05165 | 36818 ft | 500 kts | 42° |
| 2026-05-06 04:14 | -1.00616 | -170.00250 | 36817 ft | 500 kts | 42° |
| 2026-05-06 04:15 | -0.95684 | -169.95335 | 36817 ft | 500 kts | 42° |
| 2026-05-06 04:15 | -0.90763 | -169.90430 | 36818 ft | 500 kts | 42° |
| 2026-05-06 04:16 | -0.85839 | -169.85524 | 36813 ft | 500 kts | 42° |
| 2026-05-06 04:16 | -0.80946 | -169.80648 | 36817 ft | 500 kts | 42° |
| 2026-05-06 04:17 | -0.76031 | -169.75750 | 36822 ft | 498 kts | 42° |
| 2026-05-06 04:17 | -0.71126 | -169.70862 | 36819 ft | 498 kts | 42° |
| 2026-05-06 04:18 | -0.66219 | -169.65974 | 36821 ft | 498 kts | 42° |
| 2026-05-06 04:18 | -0.62140 | -169.61909 | 36821 ft | 498 kts | 42° |
| 2026-05-06 04:19 | -0.57243 | -169.57030 | 36820 ft | 498 kts | 42° |
| 2026-05-06 04:19 | -0.52336 | -169.52141 | 36821 ft | 498 kts | 42° |
| 2026-05-06 04:20 | -0.47432 | -169.47255 | 36821 ft | 498 kts | 42° |
| 2026-05-06 04:20 | -0.42529 | -169.42371 | 36820 ft | 498 kts | 42° |
| 2026-05-06 04:21 | -0.37629 | -169.37488 | 36818 ft | 497 kts | 42° |
| 2026-05-06 04:21 | -0.32739 | -169.32617 | 36819 ft | 495 kts | 43° |
| 2026-05-06 04:22 | -0.27854 | -169.27750 | 36820 ft | 496 kts | 43° |
| 2026-05-06 04:23 | -0.20517 | -169.20441 | 36818 ft | 497 kts | 43° |
| 2026-05-06 04:23 | -0.15620 | -169.15563 | 36825 ft | 498 kts | 43° |
| 2026-05-06 04:24 | -0.10708 | -169.10669 | 36822 ft | 498 kts | 43° |
| 2026-05-06 04:24 | -0.05796 | -169.05776 | 36820 ft | 499 kts | 43° |
| 2026-05-06 04:25 | -0.00878 | -169.00876 | 36819 ft | 500 kts | 43° |
| 2026-05-06 04:25 | 0.04003 | -168.96014 | 36814 ft | 498 kts | 43° |
| 2026-05-06 04:26 | 0.08902 | -168.91133 | 36808 ft | 496 kts | 43° |
| 2026-05-06 04:26 | 0.13793 | -168.86261 | 36805 ft | 496 kts | 43° |
| 2026-05-06 04:27 | 0.18677 | -168.81396 | 36804 ft | 496 kts | 43° |
| 2026-05-06 04:27 | 0.23564 | -168.76527 | 36803 ft | 496 kts | 43° |
| 2026-05-06 04:28 | 0.28455 | -168.71655 | 36806 ft | 496 kts | 43° |
| 2026-05-06 04:28 | 0.33340 | -168.66788 | 36803 ft | 496 kts | 43° |
| 2026-05-06 04:29 | 0.38231 | -168.61915 | 36806 ft | 496 kts | 43° |
| 2026-05-06 04:29 | 0.43124 | -168.57041 | 36809 ft | 497 kts | 43° |
| 2026-05-06 04:30 | 0.47991 | -168.52192 | 36810 ft | 497 kts | 43° |
| 2026-05-06 04:30 | 0.52891 | -168.47310 | 36813 ft | 497 kts | 43° |
| 2026-05-06 04:31 | 0.57795 | -168.42424 | 36815 ft | 498 kts | 43° |
| 2026-05-06 04:31 | 0.62698 | -168.37538 | 36810 ft | 498 kts | 43° |
| 2026-05-06 04:32 | 0.67611 | -168.32643 | 36814 ft | 498 kts | 43° |
| 2026-05-06 04:32 | 0.72524 | -168.27748 | 36814 ft | 499 kts | 43° |
| 2026-05-06 04:33 | 0.77439 | -168.22850 | 36818 ft | 499 kts | 43° |
| 2026-05-06 04:33 | 0.82341 | -168.17965 | 36819 ft | 497 kts | 43° |
| 2026-05-06 04:34 | 0.87233 | -168.13091 | 36818 ft | 496 kts | 43° |
| 2026-05-06 04:34 | 0.92114 | -168.08227 | 36818 ft | 495 kts | 43° |
| 2026-05-06 04:35 | 0.96958 | -168.03400 | 36813 ft | 495 kts | 43° |
| 2026-05-06 04:35 | 1.01843 | -167.98531 | 36816 ft | 497 kts | 43° |
| 2026-05-06 04:36 | 1.06743 | -167.93647 | 36815 ft | 498 kts | 43° |
| 2026-05-06 04:36 | 1.11659 | -167.88747 | 36819 ft | 499 kts | 43° |
| 2026-05-06 04:37 | 1.16566 | -167.83855 | 36820 ft | 496 kts | 43° |
| 2026-05-06 04:37 | 1.21450 | -167.78987 | 36816 ft | 496 kts | 43° |
| 2026-05-06 04:38 | 1.26337 | -167.74115 | 36814 ft | 496 kts | 43° |
| 2026-05-06 04:38 | 1.31223 | -167.69244 | 36818 ft | 496 kts | 43° |
| 2026-05-06 04:39 | 1.36107 | -167.64375 | 36817 ft | 496 kts | 43° |
| 2026-05-06 04:39 | 1.40998 | -167.59497 | 36815 ft | 496 kts | 43° |
| 2026-05-06 04:40 | 1.45851 | -167.54659 | 36813 ft | 495 kts | 43° |
| 2026-05-06 04:40 | 1.50722 | -167.49801 | 36822 ft | 495 kts | 43° |
| 2026-05-06 04:41 | 1.55601 | -167.44936 | 36820 ft | 495 kts | 43° |
| 2026-05-06 04:41 | 1.60482 | -167.40068 | 36825 ft | 496 kts | 43° |
| 2026-05-06 04:42 | 1.65370 | -167.35193 | 36821 ft | 497 kts | 43° |
| 2026-05-06 04:42 | 1.70258 | -167.30316 | 36822 ft | 497 kts | 43° |
| 2026-05-06 04:43 | 1.75161 | -167.25426 | 36826 ft | 498 kts | 43° |
| 2026-05-06 04:43 | 1.80064 | -167.20534 | 36829 ft | 499 kts | 43° |
| 2026-05-06 04:44 | 1.84985 | -167.15625 | 36830 ft | 499 kts | 43° |
| 2026-05-06 04:44 | 1.89887 | -167.10734 | 36834 ft | 497 kts | 43° |
| 2026-05-06 04:45 | 1.94785 | -167.05846 | 36825 ft | 497 kts | 43° |
| 2026-05-06 04:45 | 1.99680 | -167.00961 | 36826 ft | 497 kts | 43° |
| 2026-05-06 04:46 | 2.04566 | -166.96085 | 36823 ft | 497 kts | 43° |
| 2026-05-06 04:46 | 2.09426 | -166.91233 | 36829 ft | 497 kts | 43° |
| 2026-05-06 04:47 | 2.14318 | -166.86350 | 36829 ft | 497 kts | 43° |
| 2026-05-06 04:47 | 2.19208 | -166.81468 | 36830 ft | 496 kts | 43° |
| 2026-05-06 04:48 | 2.24091 | -166.76593 | 36831 ft | 496 kts | 43° |
| 2026-05-06 04:48 | 2.28945 | -166.71746 | 36833 ft | 492 kts | 44° |
| 2026-05-06 04:49 | 2.33796 | -166.66902 | 36829 ft | 492 kts | 43° |
| 2026-05-06 04:49 | 2.38644 | -166.62059 | 36832 ft | 493 kts | 43° |
| 2026-05-06 04:50 | 2.43495 | -166.57214 | 36832 ft | 493 kts | 44° |
| 2026-05-06 04:50 | 2.48344 | -166.52371 | 36839 ft | 493 kts | 44° |
| 2026-05-06 04:51 | 2.53197 | -166.47522 | 36833 ft | 494 kts | 43° |
| 2026-05-06 04:51 | 2.58066 | -166.42657 | 36841 ft | 496 kts | 43° |
| 2026-05-06 04:52 | 2.62939 | -166.37786 | 36829 ft | 494 kts | 43° |
| 2026-05-06 04:52 | 2.67789 | -166.32941 | 36830 ft | 492 kts | 43° |
| 2026-05-06 04:53 | 2.72634 | -166.28098 | 36832 ft | 492 kts | 43° |
| 2026-05-06 04:53 | 2.77449 | -166.23285 | 36825 ft | 493 kts | 43° |
| 2026-05-06 04:54 | 2.82298 | -166.18437 | 36829 ft | 493 kts | 43° |
| 2026-05-06 04:54 | 2.87144 | -166.13591 | 36829 ft | 493 kts | 43° |
| 2026-05-06 04:55 | 2.91997 | -166.08739 | 36832 ft | 493 kts | 43° |
| 2026-05-06 04:55 | 2.96846 | -166.03889 | 36827 ft | 493 kts | 43° |
| 2026-05-06 04:56 | 3.01717 | -165.99016 | 36830 ft | 496 kts | 43° |
| 2026-05-06 04:56 | 3.06599 | -165.94132 | 36832 ft | 496 kts | 43° |
| 2026-05-06 04:57 | 3.11479 | -165.89250 | 36836 ft | 496 kts | 43° |
| 2026-05-06 04:57 | 3.16361 | -165.84365 | 36842 ft | 496 kts | 43° |
| 2026-05-06 04:58 | 3.21240 | -165.79481 | 36837 ft | 496 kts | 43° |
| 2026-05-06 04:58 | 3.26092 | -165.74625 | 36833 ft | 496 kts | 43° |
| 2026-05-06 04:59 | 3.30973 | -165.69738 | 36836 ft | 497 kts | 43° |
| 2026-05-06 04:59 | 3.35859 | -165.64846 | 36837 ft | 495 kts | 43° |
| 2026-05-06 05:00 | 3.40720 | -165.59978 | 36847 ft | 494 kts | 43° |
| 2026-05-06 05:00 | 3.45576 | -165.55115 | 36836 ft | 493 kts | 43° |
| 2026-05-06 05:01 | 3.50433 | -165.50250 | 36841 ft | 493 kts | 43° |
| 2026-05-06 05:01 | 3.55283 | -165.45391 | 36835 ft | 493 kts | 43° |
| 2026-05-06 05:02 | 3.60128 | -165.40535 | 36836 ft | 494 kts | 43° |
| 2026-05-06 05:02 | 3.64997 | -165.35656 | 36836 ft | 495 kts | 43° |
| 2026-05-06 05:03 | 3.69870 | -165.30771 | 36844 ft | 496 kts | 42° |
| 2026-05-06 05:03 | 3.74742 | -165.25887 | 36845 ft | 495 kts | 42° |
| 2026-05-06 05:04 | 3.78779 | -165.21839 | 36844 ft | 493 kts | 42° |
| 2026-05-06 05:04 | 3.83619 | -165.16985 | 36837 ft | 493 kts | 42° |
| 2026-05-06 05:05 | 3.89261 | -165.11327 | 36843 ft | 495 kts | 42° |
| 2026-05-06 05:05 | 3.93343 | -165.07231 | 36846 ft | 496 kts | 42° |
| 2026-05-06 05:06 | 3.98181 | -165.02377 | 36838 ft | 495 kts | 42° |
| 2026-05-06 05:06 | 4.03062 | -164.97478 | 36832 ft | 492 kts | 42° |
| 2026-05-06 05:07 | 4.07869 | -164.92654 | 36833 ft | 493 kts | 42° |
| 2026-05-06 05:07 | 4.12718 | -164.87786 | 36838 ft | 494 kts | 42° |
| 2026-05-06 05:08 | 4.17575 | -164.82909 | 36838 ft | 495 kts | 42° |
| 2026-05-06 05:08 | 4.22439 | -164.78025 | 36847 ft | 495 kts | 42° |
| 2026-05-06 05:09 | 4.27304 | -164.73138 | 36842 ft | 495 kts | 42° |
| 2026-05-06 05:09 | 4.32165 | -164.68254 | 36847 ft | 494 kts | 42° |
| 2026-05-06 05:10 | 4.37016 | -164.63380 | 36846 ft | 494 kts | 42° |
| 2026-05-06 05:10 | 4.41863 | -164.58508 | 36846 ft | 493 kts | 42° |
| 2026-05-06 05:11 | 4.46712 | -164.53635 | 36851 ft | 494 kts | 42° |
| 2026-05-06 05:11 | 4.51571 | -164.48749 | 36858 ft | 495 kts | 42° |
| 2026-05-06 05:12 | 4.56438 | -164.43855 | 36851 ft | 496 kts | 42° |
| 2026-05-06 05:12 | 4.61283 | -164.38982 | 36854 ft | 497 kts | 42° |
| 2026-05-06 05:13 | 4.66161 | -164.34073 | 36845 ft | 496 kts | 42° |
| 2026-05-06 05:13 | 4.71034 | -164.29170 | 36838 ft | 496 kts | 42° |
| 2026-05-06 05:14 | 4.75904 | -164.24269 | 36842 ft | 496 kts | 42° |
| 2026-05-06 05:14 | 4.80768 | -164.19372 | 36843 ft | 495 kts | 42° |
| 2026-05-06 05:15 | 4.85626 | -164.14481 | 36845 ft | 494 kts | 42° |
| 2026-05-06 05:15 | 4.90469 | -164.09604 | 36841 ft | 493 kts | 42° |
| 2026-05-06 05:16 | 4.95307 | -164.04730 | 36838 ft | 493 kts | 42° |
| 2026-05-06 05:16 | 5.00149 | -163.99852 | 36839 ft | 494 kts | 42° |
| 2026-05-06 05:17 | 5.05062 | -163.95013 | 36842 ft | 496 kts | 41° |
| 2026-05-06 05:17 | 5.09964 | -163.90192 | 36846 ft | 497 kts | 41° |
| 2026-05-06 05:18 | 5.14895 | -163.85322 | 36852 ft | 497 kts | 41° |
| 2026-05-06 05:18 | 5.19839 | -163.80457 | 36849 ft | 498 kts | 41° |
| 2026-05-06 05:19 | 5.24774 | -163.75586 | 36856 ft | 497 kts | 41° |
| 2026-05-06 05:19 | 5.29696 | -163.70736 | 36848 ft | 495 kts | 41° |
| 2026-05-06 05:20 | 5.34600 | -163.65897 | 36846 ft | 494 kts | 41° |
| 2026-05-06 05:20 | 5.39510 | -163.61054 | 36843 ft | 496 kts | 42° |
| 2026-05-06 05:21 | 5.44433 | -163.56195 | 36848 ft | 497 kts | 42° |
| 2026-05-06 05:21 | 5.49367 | -163.51325 | 36849 ft | 498 kts | 42° |
| 2026-05-06 05:22 | 5.54280 | -163.46475 | 36851 ft | 498 kts | 42° |
| 2026-05-06 05:22 | 5.59205 | -163.41610 | 36851 ft | 496 kts | 42° |
| 2026-05-06 05:23 | 5.64127 | -163.36749 | 36849 ft | 495 kts | 42° |
| 2026-05-06 05:23 | 5.71511 | -163.29452 | 36851 ft | 497 kts | 41° |
| 2026-05-06 05:24 | 5.76451 | -163.24570 | 36851 ft | 498 kts | 41° |
| 2026-05-06 05:24 | 5.81396 | -163.19681 | 36858 ft | 500 kts | 41° |
| 2026-05-06 05:25 | 5.86359 | -163.14772 | 36857 ft | 502 kts | 41° |
| 2026-05-06 05:25 | 5.91333 | -163.09852 | 36861 ft | 501 kts | 41° |
| 2026-05-06 05:26 | 5.96267 | -163.04970 | 36859 ft | 500 kts | 41° |
| 2026-05-06 05:26 | 6.01214 | -163.00074 | 36851 ft | 499 kts | 41° |
| 2026-05-06 05:27 | 6.06151 | -162.95186 | 36852 ft | 498 kts | 41° |
| 2026-05-06 05:27 | 6.11104 | -162.90283 | 36865 ft | 501 kts | 41° |
| 2026-05-06 05:28 | 6.16073 | -162.85359 | 36865 ft | 502 kts | 41° |
| 2026-05-06 05:28 | 6.21047 | -162.80432 | 36868 ft | 502 kts | 41° |
| 2026-05-06 05:29 | 6.26028 | -162.75494 | 36869 ft | 502 kts | 41° |
| 2026-05-06 05:29 | 6.30996 | -162.70569 | 36875 ft | 502 kts | 41° |
| 2026-05-06 05:30 | 6.35935 | -162.65671 | 36870 ft | 502 kts | 41° |
| 2026-05-06 05:30 | 6.40932 | -162.60715 | 36869 ft | 501 kts | 41° |
| 2026-05-06 05:31 | 6.45875 | -162.55811 | 36870 ft | 504 kts | 41° |
| 2026-05-06 05:31 | 6.50867 | -162.50855 | 36873 ft | 504 kts | 41° |
| 2026-05-06 05:32 | 6.55860 | -162.45898 | 36869 ft | 505 kts | 41° |
| 2026-05-06 05:32 | 6.60864 | -162.40929 | 36871 ft | 505 kts | 41° |
| 2026-05-06 05:33 | 6.65851 | -162.35975 | 36868 ft | 503 kts | 41° |
| 2026-05-06 05:33 | 6.70823 | -162.31035 | 36864 ft | 502 kts | 41° |
| 2026-05-06 05:34 | 6.75790 | -162.26097 | 36860 ft | 501 kts | 41° |
| 2026-05-06 05:34 | 6.80764 | -162.21153 | 36870 ft | 505 kts | 41° |
| 2026-05-06 05:35 | 6.85777 | -162.16165 | 36875 ft | 506 kts | 41° |
| 2026-05-06 05:35 | 6.90790 | -162.11179 | 36872 ft | 508 kts | 42° |
| 2026-05-06 05:36 | 6.95820 | -162.06171 | 36869 ft | 508 kts | 42° |
| 2026-05-06 05:36 | 7.00835 | -162.01179 | 36870 ft | 507 kts | 42° |
| 2026-05-06 05:37 | 7.05844 | -161.96190 | 36865 ft | 506 kts | 42° |
| 2026-05-06 05:37 | 7.10838 | -161.91215 | 36869 ft | 505 kts | 42° |
| 2026-05-06 05:38 | 7.15814 | -161.86257 | 36872 ft | 508 kts | 42° |
| 2026-05-06 05:38 | 7.20843 | -161.81244 | 36873 ft | 509 kts | 42° |
| 2026-05-06 05:39 | 7.25880 | -161.76222 | 36881 ft | 509 kts | 43° |
| 2026-05-06 05:39 | 7.30917 | -161.71196 | 36881 ft | 509 kts | 43° |
| 2026-05-06 05:40 | 7.35954 | -161.66171 | 36882 ft | 509 kts | 43° |
| 2026-05-06 05:40 | 7.40987 | -161.61146 | 36880 ft | 509 kts | 43° |
| 2026-05-06 05:41 | 7.46021 | -161.56119 | 36880 ft | 509 kts | 43° |
| 2026-05-06 05:41 | 7.51021 | -161.51125 | 36876 ft | 509 kts | 43° |
| 2026-05-06 05:42 | 7.56050 | -161.46100 | 36877 ft | 509 kts | 43° |
| 2026-05-06 05:42 | 7.61080 | -161.41073 | 36876 ft | 509 kts | 43° |
| 2026-05-06 05:43 | 7.66108 | -161.36045 | 36876 ft | 509 kts | 43° |
| 2026-05-06 05:43 | 7.71137 | -161.31015 | 36874 ft | 509 kts | 43° |
| 2026-05-06 05:44 | 7.76161 | -161.25988 | 36874 ft | 509 kts | 43° |
| 2026-05-06 05:44 | 7.81179 | -161.20964 | 36876 ft | 508 kts | 43° |
| 2026-05-06 05:45 | 7.86168 | -161.15969 | 36874 ft | 508 kts | 43° |
| 2026-05-06 05:45 | 7.91185 | -161.10943 | 36875 ft | 508 kts | 43° |
| 2026-05-06 05:46 | 7.96209 | -161.05909 | 36878 ft | 509 kts | 43° |
| 2026-05-06 05:46 | 8.01239 | -161.00867 | 36879 ft | 510 kts | 43° |
| 2026-05-06 05:47 | 8.06274 | -160.95818 | 36882 ft | 510 kts | 43° |
| 2026-05-06 05:47 | 8.11318 | -160.90759 | 36881 ft | 511 kts | 43° |
| 2026-05-06 05:48 | 8.16360 | -160.85699 | 36879 ft | 511 kts | 43° |
| 2026-05-06 05:48 | 8.21366 | -160.80673 | 36880 ft | 510 kts | 43° |
| 2026-05-06 05:49 | 8.26398 | -160.75619 | 36885 ft | 510 kts | 43° |
| 2026-05-06 05:49 | 8.31427 | -160.70567 | 36889 ft | 510 kts | 43° |
| 2026-05-06 05:50 | 8.36457 | -160.65511 | 36884 ft | 510 kts | 43° |
| 2026-05-06 05:50 | 8.41484 | -160.60457 | 36883 ft | 510 kts | 43° |
| 2026-05-06 05:51 | 8.46502 | -160.55409 | 36886 ft | 510 kts | 43° |
| 2026-05-06 05:51 | 8.51530 | -160.50350 | 36888 ft | 511 kts | 43° |
| 2026-05-06 05:52 | 8.56571 | -160.45276 | 36888 ft | 512 kts | 43° |
| 2026-05-06 05:52 | 8.61618 | -160.40193 | 36886 ft | 512 kts | 43° |
| 2026-05-06 05:53 | 8.65809 | -160.35972 | 36886 ft | 512 kts | 43° |
| 2026-05-06 05:53 | 8.70848 | -160.30893 | 36890 ft | 511 kts | 43° |
| 2026-05-06 05:54 | 8.75884 | -160.25816 | 36889 ft | 511 kts | 43° |
| 2026-05-06 05:54 | 8.80910 | -160.20747 | 36890 ft | 510 kts | 43° |
| 2026-05-06 05:55 | 8.85909 | -160.15703 | 36888 ft | 513 kts | 43° |
| 2026-05-06 05:55 | 8.90969 | -160.10595 | 36890 ft | 513 kts | 43° |
| 2026-05-06 05:56 | 8.96026 | -160.05489 | 36895 ft | 513 kts | 43° |
| 2026-05-06 05:56 | 9.01073 | -160.00390 | 36891 ft | 512 kts | 43° |
| 2026-05-06 05:57 | 9.06109 | -159.95300 | 36894 ft | 511 kts | 43° |
| 2026-05-06 05:57 | 9.11143 | -159.90211 | 36892 ft | 511 kts | 43° |
| 2026-05-06 05:58 | 9.16169 | -159.85126 | 36894 ft | 510 kts | 43° |
| 2026-05-06 05:58 | 9.21155 | -159.80081 | 36891 ft | 510 kts | 43° |
| 2026-05-06 05:59 | 9.26205 | -159.74968 | 36889 ft | 510 kts | 43° |
| 2026-05-06 05:59 | 9.31221 | -159.69889 | 36888 ft | 509 kts | 43° |
| 2026-05-06 06:00 | 9.36233 | -159.64810 | 36893 ft | 510 kts | 43° |
| 2026-05-06 06:00 | 9.41243 | -159.59732 | 36893 ft | 510 kts | 43° |
| 2026-05-06 06:01 | 9.46230 | -159.54674 | 36895 ft | 510 kts | 43° |
| 2026-05-06 06:01 | 9.51247 | -159.49585 | 36899 ft | 512 kts | 43° |
| 2026-05-06 06:02 | 9.56300 | -159.44455 | 36899 ft | 515 kts | 43° |
| 2026-05-06 06:02 | 9.61348 | -159.39328 | 36903 ft | 512 kts | 43° |
| 2026-05-06 06:03 | 9.66375 | -159.34222 | 36899 ft | 511 kts | 43° |
| 2026-05-06 06:03 | 9.71399 | -159.29115 | 36896 ft | 511 kts | 43° |
| 2026-05-06 06:04 | 9.76389 | -159.24041 | 36899 ft | 511 kts | 43° |
| 2026-05-06 06:04 | 9.81405 | -159.18939 | 36905 ft | 510 kts | 43° |
| 2026-05-06 06:05 | 9.86430 | -159.13825 | 36903 ft | 513 kts | 43° |
| 2026-05-06 06:05 | 9.91465 | -159.08697 | 36901 ft | 512 kts | 43° |
| 2026-05-06 06:06 | 9.96481 | -159.03588 | 36902 ft | 510 kts | 43° |
| 2026-05-06 06:06 | 10.01655 | -158.98703 | 36932 ft | 506 kts | 35° |
| 2026-05-06 06:07 | 10.07265 | -158.94325 | 36909 ft | 509 kts | 35° |
| 2026-05-06 06:07 | 10.12883 | -158.89929 | 36906 ft | 510 kts | 35° |
| 2026-05-06 06:08 | 10.18500 | -158.85536 | 36912 ft | 510 kts | 35° |
| 2026-05-06 06:08 | 10.24130 | -158.81128 | 36906 ft | 512 kts | 34° |
| 2026-05-06 06:09 | 10.29788 | -158.76700 | 36906 ft | 514 kts | 34° |
| 2026-05-06 06:09 | 10.35405 | -158.72297 | 36913 ft | 514 kts | 34° |
| 2026-05-06 06:10 | 10.41065 | -158.67862 | 36913 ft | 513 kts | 34° |
| 2026-05-06 06:10 | 10.46717 | -158.63429 | 36909 ft | 513 kts | 34° |
| 2026-05-06 06:11 | 10.52365 | -158.58999 | 36910 ft | 513 kts | 35° |
| 2026-05-06 06:11 | 10.58026 | -158.54555 | 36917 ft | 516 kts | 33° |
| 2026-05-06 06:12 | 10.63749 | -158.50063 | 36918 ft | 520 kts | 34° |
| 2026-05-06 06:12 | 10.69463 | -158.45570 | 36914 ft | 518 kts | 34° |
| 2026-05-06 06:13 | 10.75159 | -158.41096 | 36908 ft | 517 kts | 34° |
| 2026-05-06 06:13 | 10.80814 | -158.36647 | 36913 ft | 518 kts | 34° |
| 2026-05-06 06:14 | 10.86522 | -158.32157 | 36917 ft | 519 kts | 34° |
| 2026-05-06 06:14 | 10.92238 | -158.27657 | 36921 ft | 520 kts | 34° |
| 2026-05-06 06:15 | 10.97969 | -158.23143 | 36921 ft | 521 kts | 34° |
| 2026-05-06 06:15 | 11.03688 | -158.18636 | 36916 ft | 519 kts | 34° |
| 2026-05-06 06:16 | 11.09362 | -158.14162 | 36909 ft | 514 kts | 34° |
| 2026-05-06 06:16 | 11.15021 | -158.09700 | 36909 ft | 514 kts | 34° |
| 2026-05-06 06:17 | 11.20692 | -158.05223 | 36917 ft | 516 kts | 34° |
| 2026-05-06 06:17 | 11.26419 | -158.00703 | 36920 ft | 523 kts | 34° |
| 2026-05-06 06:18 | 11.32165 | -157.96161 | 36923 ft | 522 kts | 34° |
| 2026-05-06 06:18 | 11.37857 | -157.91664 | 36925 ft | 521 kts | 34° |
| 2026-05-06 06:19 | 11.43581 | -157.87136 | 36922 ft | 520 kts | 34° |
| 2026-05-06 06:19 | 11.49294 | -157.82616 | 36917 ft | 519 kts | 34° |
| 2026-05-06 06:20 | 11.55004 | -157.78096 | 36932 ft | 521 kts | 34° |
| 2026-05-06 06:20 | 11.60737 | -157.73554 | 36936 ft | 522 kts | 34° |
| 2026-05-06 06:21 | 11.66483 | -157.69001 | 36935 ft | 523 kts | 34° |
| 2026-05-06 06:21 | 11.72228 | -157.64445 | 36938 ft | 523 kts | 34° |
| 2026-05-06 06:22 | 11.77963 | -157.59895 | 36938 ft | 522 kts | 34° |
| 2026-05-06 06:22 | 11.83691 | -157.55348 | 36949 ft | 522 kts | 34° |
| 2026-05-06 06:23 | 11.89457 | -157.50771 | 36934 ft | 527 kts | 34° |
| 2026-05-06 06:23 | 11.95245 | -157.46168 | 36935 ft | 527 kts | 34° |
| 2026-05-06 06:24 | 12.01023 | -157.41576 | 36937 ft | 526 kts | 34° |
| 2026-05-06 06:24 | 12.06751 | -157.37018 | 36935 ft | 525 kts | 34° |
| 2026-05-06 06:25 | 12.12513 | -157.32432 | 36936 ft | 525 kts | 34° |
| 2026-05-06 06:26 | 12.21177 | -157.25530 | 36935 ft | 526 kts | 34° |
| 2026-05-06 06:26 | 12.26939 | -157.20937 | 36937 ft | 525 kts | 34° |
| 2026-05-06 06:27 | 12.32715 | -157.16332 | 36937 ft | 528 kts | 34° |
| 2026-05-06 06:27 | 12.38519 | -157.11698 | 36948 ft | 529 kts | 34° |
| 2026-05-06 06:28 | 12.44331 | -157.07058 | 36951 ft | 530 kts | 34° |
| 2026-05-06 06:28 | 12.50146 | -157.02412 | 36947 ft | 531 kts | 34° |
| 2026-05-06 06:29 | 12.55984 | -156.97745 | 36952 ft | 532 kts | 34° |
| 2026-05-06 06:29 | 12.61816 | -156.93079 | 36951 ft | 532 kts | 34° |
| 2026-05-06 06:30 | 12.67653 | -156.88408 | 36956 ft | 532 kts | 34° |
| 2026-05-06 06:30 | 12.73472 | -156.83747 | 36953 ft | 530 kts | 34° |
| 2026-05-06 06:31 | 12.79283 | -156.79091 | 36955 ft | 531 kts | 34° |
| 2026-05-06 06:31 | 12.85087 | -156.74438 | 36958 ft | 534 kts | 34° |
| 2026-05-06 06:32 | 12.90941 | -156.69739 | 36959 ft | 533 kts | 34° |
| 2026-05-06 06:32 | 12.96780 | -156.65052 | 36961 ft | 533 kts | 34° |
| 2026-05-06 06:33 | 13.02613 | -156.60366 | 36964 ft | 532 kts | 34° |
| 2026-05-06 06:33 | 13.08444 | -156.55681 | 36966 ft | 532 kts | 34° |
| 2026-05-06 06:34 | 13.14286 | -156.50981 | 36963 ft | 535 kts | 34° |
| 2026-05-06 06:34 | 13.20115 | -156.46290 | 36971 ft | 536 kts | 34° |
| 2026-05-06 06:35 | 13.25978 | -156.41569 | 36964 ft | 536 kts | 34° |
| 2026-05-06 06:35 | 13.31842 | -156.36843 | 36968 ft | 535 kts | 34° |
| 2026-05-06 06:36 | 13.37704 | -156.32117 | 36971 ft | 535 kts | 34° |
| 2026-05-06 06:36 | 13.43556 | -156.27396 | 36965 ft | 535 kts | 34° |
| 2026-05-06 06:37 | 13.49417 | -156.22664 | 36967 ft | 535 kts | 34° |
| 2026-05-06 06:37 | 13.54291 | -156.18728 | 36912 ft | 535 kts | 36° |
| 2026-05-06 06:37 | 13.58071 | -156.15667 | 36934 ft | 521 kts | 34° |
| 2026-05-06 06:38 | 13.60914 | -156.13368 | 36957 ft | 521 kts | 34° |
| 2026-05-06 06:38 | 13.65690 | -156.09515 | 36898 ft | 528 kts | 34° |
| 2026-05-06 06:39 | 13.71480 | -156.04821 | 37007 ft | 534 kts | 34° |
| 2026-05-06 06:39 | 13.77341 | -156.00079 | 36996 ft | 536 kts | 34° |
| 2026-05-06 06:40 | 13.83194 | -155.95332 | 36980 ft | 535 kts | 34° |
| 2026-05-06 06:40 | 13.89045 | -155.90590 | 36990 ft | 533 kts | 34° |
| 2026-05-06 06:41 | 13.94859 | -155.85871 | 36973 ft | 532 kts | 34° |
| 2026-05-06 06:41 | 14.00670 | -155.81153 | 36983 ft | 531 kts | 34° |
| 2026-05-06 06:42 | 14.06470 | -155.76440 | 36988 ft | 531 kts | 35° |
| 2026-05-06 06:42 | 14.12263 | -155.71731 | 36990 ft | 531 kts | 35° |
| 2026-05-06 06:43 | 14.18062 | -155.67012 | 36987 ft | 531 kts | 35° |
| 2026-05-06 06:43 | 14.23830 | -155.62317 | 36980 ft | 531 kts | 35° |
| 2026-05-06 06:44 | 14.29631 | -155.57590 | 36990 ft | 531 kts | 35° |
| 2026-05-06 06:44 | 14.35446 | -155.52851 | 36991 ft | 534 kts | 34° |
| 2026-05-06 06:45 | 14.41292 | -155.48081 | 36990 ft | 537 kts | 35° |
| 2026-05-06 06:45 | 14.47150 | -155.43298 | 37004 ft | 537 kts | 35° |
| 2026-05-06 06:46 | 14.53008 | -155.38513 | 36994 ft | 537 kts | 35° |
| 2026-05-06 06:46 | 14.58857 | -155.33731 | 36995 ft | 536 kts | 35° |
| 2026-05-06 06:47 | 14.64709 | -155.28944 | 36990 ft | 536 kts | 34° |
| 2026-05-06 06:47 | 14.70544 | -155.24167 | 36987 ft | 534 kts | 34° |
| 2026-05-06 06:48 | 14.76358 | -155.19405 | 36992 ft | 534 kts | 34° |
| 2026-05-06 06:48 | 14.82185 | -155.14628 | 36994 ft | 535 kts | 34° |
| 2026-05-06 06:49 | 14.88027 | -155.09835 | 36993 ft | 537 kts | 34° |
| 2026-05-06 06:49 | 14.93879 | -155.05030 | 37004 ft | 537 kts | 34° |
| 2026-05-06 06:50 | 14.99684 | -155.00255 | 37005 ft | 536 kts | 36° |
| 2026-05-06 06:50 | 15.05176 | -154.95018 | 37001 ft | 536 kts | 39° |
| 2026-05-06 06:51 | 15.10627 | -154.89763 | 36995 ft | 535 kts | 39° |
| 2026-05-06 06:51 | 15.16087 | -154.84502 | 36999 ft | 536 kts | 39° |
| 2026-05-06 06:52 | 15.21545 | -154.79231 | 37010 ft | 537 kts | 39° |
| 2026-05-06 06:52 | 15.27017 | -154.73949 | 37012 ft | 538 kts | 39° |
| 2026-05-06 06:53 | 15.32508 | -154.68640 | 37011 ft | 539 kts | 39° |
| 2026-05-06 06:53 | 15.37943 | -154.63384 | 37011 ft | 537 kts | 39° |
| 2026-05-06 06:54 | 15.43398 | -154.58102 | 37009 ft | 536 kts | 39° |
| 2026-05-06 06:54 | 15.48849 | -154.52823 | 37016 ft | 536 kts | 39° |
| 2026-05-06 06:55 | 15.54304 | -154.47535 | 37013 ft | 537 kts | 39° |
| 2026-05-06 06:55 | 15.59771 | -154.42230 | 37020 ft | 538 kts | 39° |
| 2026-05-06 06:56 | 15.65219 | -154.36942 | 37025 ft | 539 kts | 39° |
| 2026-05-06 06:56 | 15.70683 | -154.31632 | 37023 ft | 537 kts | 39° |
| 2026-05-06 06:57 | 15.76124 | -154.26341 | 37017 ft | 535 kts | 39° |
| 2026-05-06 06:57 | 15.81568 | -154.21044 | 37027 ft | 537 kts | 39° |
| 2026-05-06 06:58 | 15.87027 | -154.15726 | 37026 ft | 538 kts | 39° |
| 2026-05-06 06:58 | 15.92479 | -154.10413 | 37031 ft | 538 kts | 39° |
| 2026-05-06 06:59 | 15.97937 | -154.05089 | 37031 ft | 537 kts | 39° |
| 2026-05-06 06:59 | 16.03386 | -153.99770 | 37023 ft | 537 kts | 40° |
| 2026-05-06 07:00 | 16.08841 | -153.94441 | 37027 ft | 539 kts | 39° |
| 2026-05-06 07:00 | 16.14311 | -153.89092 | 37033 ft | 540 kts | 39° |
| 2026-05-06 07:01 | 16.19778 | -153.83743 | 37035 ft | 540 kts | 39° |
| 2026-05-06 07:01 | 16.25251 | -153.78384 | 37036 ft | 540 kts | 39° |
| 2026-05-06 07:02 | 16.30719 | -153.73025 | 37030 ft | 540 kts | 40° |
| 2026-05-06 07:02 | 16.36186 | -153.67662 | 37031 ft | 541 kts | 39° |
| 2026-05-06 07:03 | 16.41616 | -153.62331 | 37030 ft | 538 kts | 39° |
| 2026-05-06 07:03 | 16.47070 | -153.56974 | 37031 ft | 539 kts | 39° |
| 2026-05-06 07:04 | 16.52524 | -153.51610 | 37026 ft | 539 kts | 39° |
| 2026-05-06 07:04 | 16.57985 | -153.46237 | 37029 ft | 540 kts | 40° |
| 2026-05-06 07:05 | 16.63449 | -153.40855 | 37050 ft | 541 kts | 39° |
| 2026-05-06 07:05 | 16.68917 | -153.35466 | 37047 ft | 541 kts | 39° |
| 2026-05-06 07:06 | 16.74381 | -153.30075 | 37040 ft | 540 kts | 39° |
| 2026-05-06 07:06 | 16.79844 | -153.24682 | 37037 ft | 540 kts | 39° |
| 2026-05-06 07:07 | 16.85305 | -153.19285 | 37042 ft | 540 kts | 39° |
| 2026-05-06 07:07 | 16.90723 | -153.13927 | 37037 ft | 540 kts | 40° |
| 2026-05-06 07:08 | 16.96171 | -153.08535 | 37035 ft | 540 kts | 40° |
| 2026-05-06 07:08 | 17.01631 | -153.03126 | 37036 ft | 539 kts | 40° |
| 2026-05-06 07:09 | 17.07076 | -152.97727 | 37048 ft | 539 kts | 40° |
| 2026-05-06 07:09 | 17.12517 | -152.92328 | 37036 ft | 539 kts | 40° |
| 2026-05-06 07:10 | 17.17955 | -152.86928 | 37047 ft | 540 kts | 40° |
| 2026-05-06 07:10 | 17.23381 | -152.81535 | 37046 ft | 542 kts | 40° |
| 2026-05-06 07:11 | 17.28837 | -152.76106 | 37047 ft | 540 kts | 40° |
| 2026-05-06 07:11 | 17.34280 | -152.70688 | 37047 ft | 540 kts | 40° |
| 2026-05-06 07:12 | 17.39734 | -152.65252 | 37048 ft | 542 kts | 40° |
| 2026-05-06 07:12 | 17.45190 | -152.59810 | 37049 ft | 541 kts | 40° |
| 2026-05-06 07:13 | 17.50638 | -152.54372 | 37054 ft | 541 kts | 40° |
| 2026-05-06 07:13 | 17.56089 | -152.48925 | 37044 ft | 541 kts | 40° |
| 2026-05-06 07:14 | 17.61539 | -152.43475 | 37050 ft | 541 kts | 40° |
| 2026-05-06 07:14 | 17.66957 | -152.38052 | 37052 ft | 542 kts | 40° |
| 2026-05-06 07:15 | 17.72414 | -152.32586 | 37057 ft | 542 kts | 40° |
| 2026-05-06 07:15 | 17.77870 | -152.27116 | 37059 ft | 543 kts | 40° |
| 2026-05-06 07:16 | 17.83337 | -152.21629 | 37061 ft | 544 kts | 40° |
| 2026-05-06 07:16 | 17.88795 | -152.16146 | 37060 ft | 542 kts | 40° |
| 2026-05-06 07:17 | 17.94240 | -152.10672 | 37056 ft | 541 kts | 40° |
| 2026-05-06 07:17 | 17.99678 | -152.05200 | 37061 ft | 541 kts | 40° |
| 2026-05-06 07:18 | 18.05106 | -151.99733 | 37056 ft | 540 kts | 40° |
| 2026-05-06 07:18 | 18.10542 | -151.94254 | 37058 ft | 542 kts | 40° |
| 2026-05-06 07:19 | 18.15977 | -151.88768 | 37060 ft | 541 kts | 40° |
| 2026-05-06 07:19 | 18.21389 | -151.83305 | 37061 ft | 542 kts | 40° |
| 2026-05-06 07:20 | 18.26826 | -151.77807 | 37069 ft | 542 kts | 40° |
| 2026-05-06 07:20 | 18.32251 | -151.72319 | 37067 ft | 541 kts | 40° |
| 2026-05-06 07:21 | 18.37678 | -151.66823 | 37066 ft | 541 kts | 40° |
| 2026-05-06 07:21 | 18.43095 | -151.61333 | 37066 ft | 541 kts | 40° |
| 2026-05-06 07:22 | 18.48530 | -151.55819 | 37081 ft | 543 kts | 40° |
| 2026-05-06 07:22 | 18.53972 | -151.50292 | 37082 ft | 543 kts | 40° |
| 2026-05-06 07:23 | 18.59412 | -151.44763 | 37076 ft | 543 kts | 40° |
| 2026-05-06 07:23 | 18.64862 | -151.39218 | 37080 ft | 543 kts | 40° |
| 2026-05-06 07:24 | 18.70291 | -151.33690 | 37079 ft | 542 kts | 40° |
| 2026-05-06 07:24 | 18.74800 | -151.29095 | 37081 ft | 543 kts | 40° |
| 2026-05-06 07:25 | 18.80221 | -151.23564 | 37077 ft | 542 kts | 40° |
| 2026-05-06 07:25 | 18.85631 | -151.18040 | 37075 ft | 541 kts | 40° |
| 2026-05-06 07:26 | 18.91035 | -151.12518 | 37075 ft | 540 kts | 40° |
| 2026-05-06 07:26 | 18.96435 | -151.06994 | 37073 ft | 541 kts | 40° |
| 2026-05-06 07:27 | 19.01811 | -151.01489 | 37085 ft | 543 kts | 40° |
| 2026-05-06 07:27 | 19.07244 | -150.95920 | 37087 ft | 544 kts | 40° |
| 2026-05-06 07:28 | 19.12667 | -150.90355 | 37086 ft | 543 kts | 40° |
| 2026-05-06 07:28 | 19.20775 | -150.82028 | 37085 ft | 541 kts | 40° |
| 2026-05-06 07:29 | 19.26171 | -150.76479 | 37088 ft | 540 kts | 40° |
| 2026-05-06 07:29 | 19.31555 | -150.70936 | 37073 ft | 540 kts | 40° |
| 2026-05-06 07:30 | 19.36934 | -150.65394 | 37081 ft | 540 kts | 40° |
| 2026-05-06 07:30 | 19.42324 | -150.59835 | 37080 ft | 540 kts | 40° |
| 2026-05-06 07:31 | 19.47700 | -150.54285 | 37080 ft | 539 kts | 40° |
| 2026-05-06 07:31 | 19.53076 | -150.48729 | 37080 ft | 540 kts | 40° |
| 2026-05-06 07:32 | 19.58416 | -150.43205 | 37079 ft | 540 kts | 40° |
| 2026-05-06 07:32 | 19.63846 | -150.37584 | 37084 ft | 543 kts | 40° |
| 2026-05-06 07:33 | 19.69257 | -150.31974 | 37092 ft | 544 kts | 40° |
| 2026-05-06 07:33 | 19.74630 | -150.26399 | 37120 ft | 543 kts | 40° |
| 2026-05-06 07:34 | 19.80024 | -150.20797 | 37091 ft | 541 kts | 40° |
| 2026-05-06 07:34 | 19.85411 | -150.15198 | 37091 ft | 541 kts | 40° |
| 2026-05-06 07:35 | 19.90797 | -150.09593 | 37088 ft | 542 kts | 40° |
| 2026-05-06 07:35 | 19.96191 | -150.03973 | 37096 ft | 543 kts | 40° |
| 2026-05-06 07:36 | 20.01490 | -149.98229 | 37110 ft | 545 kts | 45° |
| 2026-05-06 07:36 | 20.06529 | -149.92196 | 37220 ft | 546 kts | 44° |
| 2026-05-06 07:37 | 20.09053 | -149.89183 | 37452 ft | 546 kts | 44° |
| 2026-05-06 07:37 | 20.11585 | -149.86153 | 37630 ft | 547 kts | 44° |
| 2026-05-06 07:37 | 20.14108 | -149.83127 | 37805 ft | 547 kts | 44° |
| 2026-05-06 07:37 | 20.16605 | -149.80135 | 38005 ft | 547 kts | 44° |
| 2026-05-06 07:38 | 20.19137 | -149.77102 | 38183 ft | 548 kts | 44° |
| 2026-05-06 07:38 | 20.21666 | -149.74069 | 38374 ft | 548 kts | 44° |
| 2026-05-06 07:38 | 20.24192 | -149.71036 | 38609 ft | 547 kts | 44° |
| 2026-05-06 07:38 | 20.26718 | -149.68002 | 38858 ft | 546 kts | 44° |
| 2026-05-06 07:39 | 20.29240 | -149.64973 | 39042 ft | 545 kts | 44° |
| 2026-05-06 07:39 | 20.31754 | -149.61954 | 39099 ft | 547 kts | 44° |
| 2026-05-06 07:39 | 20.36797 | -149.55885 | 39099 ft | 545 kts | 44° |
| 2026-05-06 07:40 | 20.41818 | -149.49840 | 39101 ft | 543 kts | 44° |
| 2026-05-06 07:40 | 20.46823 | -149.43807 | 39117 ft | 543 kts | 44° |
| 2026-05-06 07:41 | 20.51821 | -149.37775 | 39119 ft | 541 kts | 44° |
| 2026-05-06 07:41 | 20.56769 | -149.31798 | 39107 ft | 541 kts | 44° |
| 2026-05-06 07:42 | 20.61763 | -149.25759 | 39119 ft | 544 kts | 44° |
| 2026-05-06 07:42 | 20.66809 | -149.19649 | 39118 ft | 545 kts | 44° |
| 2026-05-06 07:43 | 20.71796 | -149.13605 | 39115 ft | 544 kts | 44° |
| 2026-05-06 07:43 | 20.76788 | -149.07548 | 39113 ft | 541 kts | 44° |
| 2026-05-06 07:44 | 20.81760 | -149.01510 | 39110 ft | 541 kts | 44° |
| 2026-05-06 07:44 | 20.86743 | -148.95451 | 39118 ft | 544 kts | 45° |
| 2026-05-06 07:45 | 20.91741 | -148.89367 | 39131 ft | 545 kts | 45° |
| 2026-05-06 07:45 | 20.96734 | -148.83281 | 39122 ft | 541 kts | 45° |
| 2026-05-06 07:46 | 21.01689 | -148.77237 | 39121 ft | 540 kts | 45° |
| 2026-05-06 07:46 | 21.06640 | -148.71192 | 39119 ft | 540 kts | 45° |
| 2026-05-06 07:47 | 21.11558 | -148.65178 | 39124 ft | 540 kts | 45° |
| 2026-05-06 07:47 | 21.16508 | -148.59121 | 39137 ft | 540 kts | 45° |
| 2026-05-06 07:48 | 21.21230 | -148.53333 | 39133 ft | 538 kts | 45° |
| 2026-05-06 07:48 | 21.26150 | -148.47301 | 39122 ft | 537 kts | 45° |
| 2026-05-06 07:49 | 21.31082 | -148.41245 | 39124 ft | 540 kts | 45° |
| 2026-05-06 07:49 | 21.35791 | -148.35455 | 39133 ft | 542 kts | 45° |
| 2026-05-06 07:50 | 21.40737 | -148.29367 | 39136 ft | 540 kts | 45° |
| 2026-05-06 07:50 | 21.45665 | -148.23297 | 39132 ft | 537 kts | 45° |
| 2026-05-06 07:51 | 21.50569 | -148.17249 | 39127 ft | 538 kts | 45° |
| 2026-05-06 07:51 | 21.55493 | -148.11169 | 39133 ft | 540 kts | 45° |
| 2026-05-06 07:52 | 21.60377 | -148.05131 | 39145 ft | 541 kts | 45° |
| 2026-05-06 07:52 | 21.65312 | -147.99023 | 39142 ft | 538 kts | 45° |
| 2026-05-06 07:53 | 21.70218 | -147.92945 | 39139 ft | 537 kts | 45° |
| 2026-05-06 07:53 | 21.75123 | -147.86862 | 39133 ft | 538 kts | 45° |
| 2026-05-06 07:54 | 21.80046 | -147.80749 | 39137 ft | 540 kts | 45° |
| 2026-05-06 07:54 | 21.84968 | -147.74629 | 39141 ft | 541 kts | 45° |
| 2026-05-06 07:55 | 21.89849 | -147.68554 | 39143 ft | 539 kts | 45° |
| 2026-05-06 07:55 | 21.94753 | -147.62444 | 39138 ft | 539 kts | 45° |
| 2026-05-06 07:56 | 21.99658 | -147.56325 | 39135 ft | 540 kts | 45° |
| 2026-05-06 07:56 | 22.04566 | -147.50195 | 39161 ft | 541 kts | 45° |
| 2026-05-06 07:57 | 22.09486 | -147.44043 | 39147 ft | 539 kts | 45° |
| 2026-05-06 07:57 | 22.14345 | -147.37961 | 39138 ft | 538 kts | 45° |
| 2026-05-06 07:58 | 22.19231 | -147.31839 | 39137 ft | 539 kts | 45° |
| 2026-05-06 07:58 | 22.24122 | -147.25701 | 39141 ft | 540 kts | 45° |
| 2026-05-06 07:59 | 22.29014 | -147.19555 | 39154 ft | 539 kts | 45° |
| 2026-05-06 07:59 | 22.33887 | -147.13426 | 39153 ft | 536 kts | 45° |
| 2026-05-06 08:00 | 22.38754 | -147.07299 | 39150 ft | 538 kts | 45° |
| 2026-05-06 08:00 | 22.43637 | -147.01145 | 39154 ft | 540 kts | 45° |
| 2026-05-06 08:01 | 22.48492 | -146.95015 | 39159 ft | 540 kts | 45° |
| 2026-05-06 08:01 | 22.53344 | -146.88883 | 39155 ft | 534 kts | 45° |
| 2026-05-06 08:02 | 22.58175 | -146.82774 | 39150 ft | 535 kts | 45° |
| 2026-05-06 08:02 | 22.63023 | -146.76633 | 39153 ft | 538 kts | 45° |
| 2026-05-06 08:03 | 22.67894 | -146.70456 | 39160 ft | 539 kts | 45° |
| 2026-05-06 08:03 | 22.72744 | -146.64297 | 39148 ft | 534 kts | 45° |
| 2026-05-06 08:04 | 22.77560 | -146.58177 | 39153 ft | 533 kts | 45° |
| 2026-05-06 08:04 | 22.82376 | -146.52047 | 39167 ft | 535 kts | 45° |
| 2026-05-06 08:05 | 22.87183 | -146.45924 | 39172 ft | 537 kts | 45° |
| 2026-05-06 08:05 | 22.92013 | -146.39760 | 39171 ft | 533 kts | 46° |
| 2026-05-06 08:06 | 22.96786 | -146.33664 | 39157 ft | 529 kts | 46° |
| 2026-05-06 08:06 | 23.01561 | -146.27560 | 39163 ft | 531 kts | 46° |
| 2026-05-06 08:07 | 23.06348 | -146.21430 | 39155 ft | 533 kts | 46° |
| 2026-05-06 08:07 | 23.11148 | -146.15279 | 39169 ft | 533 kts | 46° |
| 2026-05-06 08:08 | 23.15921 | -146.09151 | 39169 ft | 529 kts | 46° |
| 2026-05-06 08:08 | 23.20646 | -146.03082 | 39167 ft | 529 kts | 46° |
| 2026-05-06 08:09 | 23.25395 | -145.96971 | 39178 ft | 529 kts | 46° |
| 2026-05-06 08:09 | 23.30148 | -145.90849 | 39197 ft | 529 kts | 46° |
| 2026-05-06 08:10 | 23.34893 | -145.84730 | 39175 ft | 527 kts | 46° |
| 2026-05-06 08:10 | 23.39615 | -145.78634 | 39176 ft | 527 kts | 46° |
| 2026-05-06 08:11 | 23.44342 | -145.72522 | 39174 ft | 527 kts | 46° |
| 2026-05-06 08:11 | 23.48270 | -145.67439 | 39180 ft | 528 kts | 46° |
| 2026-05-06 08:12 | 23.52897 | -145.61444 | 39184 ft | 528 kts | 46° |
| 2026-05-06 08:12 | 23.57543 | -145.55418 | 39186 ft | 526 kts | 46° |
| 2026-05-06 08:13 | 23.62252 | -145.49302 | 39184 ft | 526 kts | 46° |
| 2026-05-06 08:13 | 23.66967 | -145.43171 | 39184 ft | 527 kts | 46° |
| 2026-05-06 08:14 | 23.71677 | -145.37038 | 39190 ft | 528 kts | 46° |
| 2026-05-06 08:14 | 23.76350 | -145.30947 | 39191 ft | 525 kts | 46° |
| 2026-05-06 08:15 | 23.81037 | -145.24830 | 39180 ft | 525 kts | 46° |
| 2026-05-06 08:15 | 23.85729 | -145.18699 | 39182 ft | 526 kts | 46° |
| 2026-05-06 08:16 | 23.90423 | -145.12557 | 39181 ft | 527 kts | 46° |
| 2026-05-06 08:16 | 23.95120 | -145.06404 | 39182 ft | 527 kts | 46° |
| 2026-05-06 08:17 | 23.99817 | -145.00238 | 39174 ft | 527 kts | 48° |
| 2026-05-06 08:17 | 24.04205 | -144.93787 | 39189 ft | 529 kts | 49° |
| 2026-05-06 08:18 | 24.08610 | -144.87320 | 39193 ft | 531 kts | 50° |
| 2026-05-06 08:18 | 24.12992 | -144.80820 | 39190 ft | 527 kts | 50° |
| 2026-05-06 08:19 | 24.17351 | -144.74387 | 39184 ft | 526 kts | 50° |
| 2026-05-06 08:19 | 24.21674 | -144.67973 | 39183 ft | 526 kts | 50° |
| 2026-05-06 08:20 | 24.26024 | -144.61526 | 39179 ft | 526 kts | 50° |
| 2026-05-06 08:20 | 24.30368 | -144.55071 | 39192 ft | 525 kts | 50° |
| 2026-05-06 08:21 | 24.34704 | -144.48623 | 39193 ft | 524 kts | 50° |
| 2026-05-06 08:21 | 24.39038 | -144.42169 | 39197 ft | 526 kts | 50° |
| 2026-05-06 08:22 | 24.43387 | -144.35683 | 39203 ft | 528 kts | 50° |
| 2026-05-06 08:22 | 24.47743 | -144.29179 | 39195 ft | 528 kts | 50° |
| 2026-05-06 08:23 | 24.52071 | -144.22707 | 39194 ft | 525 kts | 50° |
| 2026-05-06 08:23 | 24.56387 | -144.16247 | 39187 ft | 524 kts | 50° |
| 2026-05-06 08:24 | 24.60692 | -144.09792 | 39190 ft | 525 kts | 50° |
| 2026-05-06 08:24 | 24.65009 | -144.03313 | 39205 ft | 526 kts | 50° |
| 2026-05-06 08:25 | 24.69302 | -143.96859 | 39208 ft | 525 kts | 50° |
| 2026-05-06 08:25 | 24.73620 | -143.90360 | 39206 ft | 524 kts | 50° |
| 2026-05-06 08:26 | 24.77909 | -143.83896 | 39200 ft | 522 kts | 50° |
| 2026-05-06 08:26 | 24.82197 | -143.77426 | 39225 ft | 524 kts | 50° |
| 2026-05-06 08:27 | 24.86460 | -143.70981 | 39204 ft | 523 kts | 50° |
| 2026-05-06 08:27 | 24.90739 | -143.64507 | 39202 ft | 523 kts | 50° |
| 2026-05-06 08:28 | 24.95017 | -143.58024 | 39202 ft | 522 kts | 50° |
| 2026-05-06 08:28 | 24.99278 | -143.51560 | 39200 ft | 522 kts | 50° |
| 2026-05-06 08:29 | 25.03549 | -143.45071 | 39210 ft | 522 kts | 50° |
| 2026-05-06 08:29 | 25.07805 | -143.38595 | 39214 ft | 521 kts | 50° |
| 2026-05-06 08:30 | 25.12051 | -143.32126 | 39214 ft | 520 kts | 50° |
| 2026-05-06 08:30 | 25.16304 | -143.25638 | 39213 ft | 521 kts | 50° |
| 2026-05-06 08:31 | 25.20559 | -143.19137 | 39220 ft | 522 kts | 50° |
| 2026-05-06 08:31 | 25.24806 | -143.12641 | 39218 ft | 521 kts | 50° |
| 2026-05-06 08:32 | 25.29043 | -143.06151 | 39218 ft | 520 kts | 50° |
| 2026-05-06 08:32 | 25.33248 | -142.99700 | 39215 ft | 520 kts | 50° |
| 2026-05-06 08:33 | 25.37478 | -142.93203 | 39220 ft | 519 kts | 50° |
| 2026-05-06 08:33 | 25.41694 | -142.86719 | 39218 ft | 519 kts | 50° |
| 2026-05-06 08:34 | 25.47992 | -142.77013 | 39220 ft | 519 kts | 50° |
| 2026-05-06 08:35 | 25.52203 | -142.70516 | 39229 ft | 519 kts | 51° |
| 2026-05-06 08:35 | 25.56401 | -142.64027 | 39222 ft | 517 kts | 51° |
| 2026-05-06 08:36 | 25.60587 | -142.57549 | 39221 ft | 517 kts | 51° |
| 2026-05-06 08:36 | 25.64777 | -142.51055 | 39222 ft | 518 kts | 51° |
| 2026-05-06 08:37 | 25.68969 | -142.44549 | 39227 ft | 519 kts | 51° |
| 2026-05-06 08:37 | 25.73167 | -142.38025 | 39230 ft | 520 kts | 51° |
| 2026-05-06 08:38 | 25.77366 | -142.31489 | 39233 ft | 520 kts | 51° |
| 2026-05-06 08:38 | 25.81563 | -142.24947 | 39231 ft | 521 kts | 50° |
| 2026-05-06 08:39 | 25.85767 | -142.18389 | 39245 ft | 522 kts | 51° |
| 2026-05-06 08:39 | 25.89958 | -142.11834 | 39229 ft | 518 kts | 51° |
| 2026-05-06 08:40 | 25.94124 | -142.05317 | 39222 ft | 517 kts | 51° |
| 2026-05-06 08:40 | 25.98280 | -141.98803 | 39220 ft | 517 kts | 51° |
| 2026-05-06 08:41 | 26.02443 | -141.92269 | 39233 ft | 517 kts | 51° |
| 2026-05-06 08:41 | 26.06557 | -141.85802 | 39237 ft | 514 kts | 51° |
| 2026-05-06 08:42 | 26.10691 | -141.79297 | 39232 ft | 515 kts | 51° |
| 2026-05-06 08:42 | 26.14836 | -141.72762 | 39233 ft | 516 kts | 51° |
| 2026-05-06 08:43 | 26.18971 | -141.66236 | 39243 ft | 515 kts | 51° |
| 2026-05-06 08:43 | 26.23058 | -141.59775 | 39240 ft | 513 kts | 51° |
| 2026-05-06 08:44 | 26.27197 | -141.53225 | 39237 ft | 514 kts | 51° |
| 2026-05-06 08:44 | 26.31314 | -141.46698 | 39236 ft | 515 kts | 51° |
| 2026-05-06 08:45 | 26.35435 | -141.40157 | 39246 ft | 516 kts | 51° |
| 2026-05-06 08:45 | 26.39521 | -141.33658 | 39246 ft | 513 kts | 51° |
| 2026-05-06 08:46 | 26.43610 | -141.27152 | 39239 ft | 512 kts | 51° |
| 2026-05-06 08:46 | 26.47697 | -141.20634 | 39236 ft | 512 kts | 51° |
| 2026-05-06 08:47 | 26.51779 | -141.14118 | 39253 ft | 512 kts | 52° |
| 2026-05-06 08:47 | 26.55848 | -141.07611 | 39254 ft | 510 kts | 52° |
| 2026-05-06 08:48 | 26.59909 | -141.01110 | 39250 ft | 510 kts | 52° |
| 2026-05-06 08:48 | 26.63973 | -140.94593 | 39262 ft | 511 kts | 52° |
| 2026-05-06 08:49 | 26.68037 | -140.88068 | 39255 ft | 510 kts | 52° |
| 2026-05-06 08:49 | 26.72079 | -140.81567 | 39254 ft | 509 kts | 52° |
| 2026-05-06 08:50 | 26.76088 | -140.75112 | 39250 ft | 508 kts | 52° |
| 2026-05-06 08:50 | 26.80127 | -140.68597 | 39254 ft | 509 kts | 52° |
| 2026-05-06 08:51 | 26.84158 | -140.62088 | 39258 ft | 508 kts | 52° |
| 2026-05-06 08:51 | 26.88179 | -140.55583 | 39250 ft | 508 kts | 52° |
| 2026-05-06 08:52 | 26.92200 | -140.49071 | 39252 ft | 508 kts | 52° |
| 2026-05-06 08:52 | 26.96213 | -140.42561 | 39248 ft | 508 kts | 52° |
| 2026-05-06 08:53 | 27.00220 | -140.36051 | 39264 ft | 506 kts | 53° |
| 2026-05-06 08:53 | 27.04217 | -140.29548 | 39260 ft | 506 kts | 53° |
| 2026-05-06 08:54 | 27.08185 | -140.23085 | 39264 ft | 507 kts | 53° |
| 2026-05-06 08:54 | 27.12183 | -140.16561 | 39276 ft | 508 kts | 53° |
| 2026-05-06 08:55 | 27.16180 | -140.10030 | 39255 ft | 506 kts | 53° |
| 2026-05-06 08:55 | 27.20154 | -140.03527 | 39253 ft | 505 kts | 53° |
| 2026-05-06 08:56 | 27.24128 | -139.97015 | 39254 ft | 505 kts | 53° |
| 2026-05-06 08:56 | 27.28096 | -139.90503 | 39254 ft | 505 kts | 53° |
| 2026-05-06 08:57 | 27.32063 | -139.83981 | 39257 ft | 505 kts | 53° |
| 2026-05-06 08:57 | 27.35360 | -139.78556 | 39259 ft | 505 kts | 53° |
| 2026-05-06 08:58 | 27.39324 | -139.72022 | 39258 ft | 506 kts | 53° |
| 2026-05-06 08:58 | 27.43288 | -139.65479 | 39270 ft | 505 kts | 53° |
| 2026-05-06 08:59 | 27.47235 | -139.58954 | 39270 ft | 503 kts | 53° |
| 2026-05-06 08:59 | 27.51172 | -139.52438 | 39269 ft | 504 kts | 53° |
| 2026-05-06 09:00 | 27.55115 | -139.45900 | 39274 ft | 505 kts | 53° |
| 2026-05-06 09:00 | 27.59060 | -139.39349 | 39283 ft | 505 kts | 53° |
| 2026-05-06 09:01 | 27.62997 | -139.32803 | 39281 ft | 504 kts | 53° |
| 2026-05-06 09:01 | 27.66939 | -139.26237 | 39280 ft | 504 kts | 53° |
| 2026-05-06 09:02 | 27.70865 | -139.19689 | 39279 ft | 503 kts | 53° |
| 2026-05-06 09:02 | 27.74781 | -139.13147 | 39278 ft | 503 kts | 53° |
| 2026-05-06 09:03 | 27.78688 | -139.06611 | 39277 ft | 502 kts | 53° |
| 2026-05-06 09:03 | 27.82591 | -139.00072 | 39276 ft | 502 kts | 53° |
| 2026-05-06 09:04 | 27.86469 | -138.93566 | 39285 ft | 503 kts | 53° |
| 2026-05-06 09:04 | 27.90373 | -138.87005 | 39288 ft | 503 kts | 54° |
| 2026-05-06 09:05 | 27.93737 | -138.80055 | 39290 ft | 506 kts | 60° |
| 2026-05-06 09:05 | 27.96949 | -138.72979 | 39290 ft | 505 kts | 60° |
| 2026-05-06 09:06 | 28.00168 | -138.65921 | 39285 ft | 503 kts | 60° |
| 2026-05-06 09:06 | 28.03370 | -138.58859 | 39289 ft | 506 kts | 60° |
| 2026-05-06 09:07 | 28.06590 | -138.51764 | 39288 ft | 507 kts | 60° |
| 2026-05-06 09:07 | 28.09802 | -138.44662 | 39295 ft | 507 kts | 60° |
| 2026-05-06 09:08 | 28.13010 | -138.37564 | 39286 ft | 505 kts | 60° |
| 2026-05-06 09:08 | 28.16203 | -138.30483 | 39282 ft | 504 kts | 60° |
| 2026-05-06 09:09 | 28.19391 | -138.23405 | 39281 ft | 505 kts | 60° |
| 2026-05-06 09:09 | 28.22583 | -138.16301 | 39290 ft | 506 kts | 60° |
| 2026-05-06 09:10 | 28.25778 | -138.09178 | 39292 ft | 507 kts | 60° |
| 2026-05-06 09:10 | 28.28973 | -138.02046 | 39294 ft | 507 kts | 60° |
| 2026-05-06 09:11 | 28.32163 | -137.94910 | 39298 ft | 507 kts | 60° |
| 2026-05-06 09:11 | 28.35353 | -137.87763 | 39288 ft | 507 kts | 60° |
| 2026-05-06 09:12 | 28.38524 | -137.80645 | 39286 ft | 504 kts | 60° |
| 2026-05-06 09:12 | 28.41687 | -137.73533 | 39286 ft | 505 kts | 60° |
| 2026-05-06 09:13 | 28.44858 | -137.66390 | 39290 ft | 507 kts | 60° |
| 2026-05-06 09:13 | 28.48025 | -137.59241 | 39296 ft | 505 kts | 60° |
| 2026-05-06 09:14 | 28.51177 | -137.52117 | 39291 ft | 504 kts | 60° |
| 2026-05-06 09:14 | 28.54321 | -137.44996 | 39289 ft | 504 kts | 60° |
| 2026-05-06 09:15 | 28.57444 | -137.37911 | 39289 ft | 504 kts | 60° |
| 2026-05-06 09:15 | 28.60584 | -137.30777 | 39288 ft | 505 kts | 60° |
| 2026-05-06 09:16 | 28.63731 | -137.23612 | 39295 ft | 506 kts | 60° |
| 2026-05-06 09:16 | 28.66882 | -137.16424 | 39298 ft | 508 kts | 60° |
| 2026-05-06 09:17 | 28.70027 | -137.09237 | 39291 ft | 505 kts | 60° |
| 2026-05-06 09:17 | 28.73128 | -137.02137 | 39289 ft | 502 kts | 60° |
| 2026-05-06 09:18 | 28.76257 | -136.94963 | 39288 ft | 502 kts | 60° |
| 2026-05-06 09:18 | 28.79343 | -136.87873 | 39287 ft | 502 kts | 60° |
| 2026-05-06 09:19 | 28.82441 | -136.80745 | 39301 ft | 500 kts | 60° |
| 2026-05-06 09:19 | 28.85528 | -136.73627 | 39301 ft | 500 kts | 60° |
| 2026-05-06 09:20 | 28.88604 | -136.66523 | 39285 ft | 500 kts | 60° |
| 2026-05-06 09:20 | 28.91679 | -136.59407 | 39307 ft | 499 kts | 60° |
| 2026-05-06 09:21 | 28.94744 | -136.52301 | 39291 ft | 498 kts | 60° |
| 2026-05-06 09:21 | 28.97801 | -136.45202 | 39289 ft | 498 kts | 60° |
| 2026-05-06 09:22 | 29.00857 | -136.38091 | 39290 ft | 499 kts | 61° |
| 2026-05-06 09:22 | 29.03893 | -136.31014 | 39293 ft | 497 kts | 61° |
| 2026-05-06 09:23 | 29.06933 | -136.23917 | 39296 ft | 496 kts | 61° |
| 2026-05-06 09:23 | 29.09963 | -136.16828 | 39299 ft | 496 kts | 61° |
| 2026-05-06 09:24 | 29.12990 | -136.09735 | 39306 ft | 496 kts | 61° |
| 2026-05-06 09:24 | 29.16002 | -136.02661 | 39297 ft | 494 kts | 61° |
| 2026-05-06 09:25 | 29.19009 | -135.95591 | 39291 ft | 494 kts | 61° |
| 2026-05-06 09:25 | 29.22017 | -135.88502 | 39295 ft | 496 kts | 61° |
| 2026-05-06 09:26 | 29.25027 | -135.81397 | 39296 ft | 494 kts | 61° |
| 2026-05-06 09:26 | 29.28009 | -135.74343 | 39296 ft | 491 kts | 61° |
| 2026-05-06 09:27 | 29.30985 | -135.67293 | 39297 ft | 492 kts | 61° |
| 2026-05-06 09:27 | 29.33957 | -135.60236 | 39305 ft | 491 kts | 61° |
| 2026-05-06 09:28 | 29.36902 | -135.53235 | 39295 ft | 490 kts | 61° |
| 2026-05-06 09:28 | 29.39860 | -135.46187 | 39294 ft | 490 kts | 61° |
| 2026-05-06 09:29 | 29.42814 | -135.39138 | 39294 ft | 490 kts | 61° |
| 2026-05-06 09:29 | 29.45767 | -135.32076 | 39294 ft | 490 kts | 62° |
| 2026-05-06 09:30 | 29.48702 | -135.25046 | 39296 ft | 489 kts | 62° |
| 2026-05-06 09:30 | 29.51637 | -135.18002 | 39297 ft | 489 kts | 62° |
| 2026-05-06 09:31 | 29.54574 | -135.10941 | 39301 ft | 491 kts | 62° |
| 2026-05-06 09:31 | 29.57504 | -135.03878 | 39289 ft | 487 kts | 62° |
| 2026-05-06 09:32 | 29.60424 | -134.96837 | 39290 ft | 488 kts | 62° |
| 2026-05-06 09:32 | 29.63338 | -134.89788 | 39293 ft | 489 kts | 62° |
| 2026-05-06 09:33 | 29.66262 | -134.82706 | 39293 ft | 490 kts | 62° |
| 2026-05-06 09:33 | 29.69164 | -134.75662 | 39294 ft | 490 kts | 62° |
| 2026-05-06 09:34 | 29.72080 | -134.68573 | 39295 ft | 490 kts | 62° |
| 2026-05-06 09:34 | 29.74993 | -134.61478 | 39304 ft | 489 kts | 62° |
| 2026-05-06 09:35 | 29.77888 | -134.54411 | 39288 ft | 487 kts | 62° |
| 2026-05-06 09:35 | 29.80773 | -134.47360 | 39286 ft | 486 kts | 62° |
| 2026-05-06 09:36 | 29.83646 | -134.40319 | 39292 ft | 486 kts | 62° |
| 2026-05-06 09:36 | 29.86517 | -134.33274 | 39291 ft | 484 kts | 62° |
| 2026-05-06 09:37 | 29.89361 | -134.26282 | 39290 ft | 485 kts | 62° |
| 2026-05-06 09:37 | 29.92227 | -134.19221 | 39292 ft | 486 kts | 62° |
| 2026-05-06 09:38 | 29.95086 | -134.12163 | 39293 ft | 485 kts | 62° |
| 2026-05-06 09:38 | 29.97937 | -134.05113 | 39292 ft | 484 kts | 62° |
| 2026-05-06 09:39 | 30.01264 | -133.98438 | 39299 ft | 477 kts | 45° |
| 2026-05-06 09:39 | 30.05689 | -133.92788 | 39293 ft | 478 kts | 44° |
| 2026-05-06 09:40 | 30.10174 | -133.87104 | 39295 ft | 479 kts | 44° |
| 2026-05-06 09:40 | 30.16889 | -133.78559 | 39289 ft | 477 kts | 44° |
| 2026-05-06 09:41 | 30.21351 | -133.72878 | 39286 ft | 476 kts | 44° |
| 2026-05-06 09:41 | 30.25796 | -133.67206 | 39285 ft | 476 kts | 44° |
| 2026-05-06 09:42 | 30.30208 | -133.61569 | 39284 ft | 475 kts | 44° |
| 2026-05-06 09:42 | 30.34643 | -133.55895 | 39286 ft | 473 kts | 44° |
| 2026-05-06 09:43 | 30.39063 | -133.50232 | 39291 ft | 475 kts | 44° |
| 2026-05-06 09:43 | 30.42747 | -133.45505 | 39290 ft | 476 kts | 44° |
| 2026-05-06 09:44 | 30.47190 | -133.39796 | 39290 ft | 476 kts | 43° |
| 2026-05-06 09:44 | 30.51605 | -133.34116 | 39285 ft | 473 kts | 43° |
| 2026-05-06 09:45 | 30.52545 | -133.32905 | 39284 ft | 473 kts | 43° |
| 2026-05-06 09:45 | 30.56946 | -133.27232 | 39284 ft | 473 kts | 43° |
| 2026-05-06 09:46 | 30.61347 | -133.21550 | 39288 ft | 473 kts | 43° |
| 2026-05-06 09:46 | 30.65734 | -133.15880 | 39277 ft | 471 kts | 43° |
| 2026-05-06 09:47 | 30.70115 | -133.10209 | 39273 ft | 472 kts | 43° |
| 2026-05-06 09:47 | 30.74499 | -133.04524 | 39290 ft | 472 kts | 43° |
| 2026-05-06 09:48 | 30.78886 | -132.98827 | 39287 ft | 472 kts | 43° |
| 2026-05-06 09:48 | 30.83227 | -132.93182 | 39286 ft | 470 kts | 43° |
| 2026-05-06 09:49 | 30.87592 | -132.87498 | 39285 ft | 471 kts | 43° |
| 2026-05-06 09:49 | 30.91962 | -132.81798 | 39285 ft | 472 kts | 43° |
| 2026-05-06 09:50 | 30.96333 | -132.76089 | 39289 ft | 473 kts | 43° |
| 2026-05-06 09:50 | 30.97074 | -132.75121 | 39291 ft | 473 kts | 43° |
| 2026-05-06 09:51 | 30.99007 | -132.72592 | 39289 ft | 473 kts | 43° |
| 2026-05-06 09:51 | 31.03389 | -132.66854 | 39286 ft | 473 kts | 43° |
| 2026-05-06 09:52 | 31.07765 | -132.61116 | 39303 ft | 473 kts | 43° |
| 2026-05-06 09:52 | 31.12124 | -132.55390 | 39286 ft | 470 kts | 43° |
| 2026-05-06 09:53 | 31.16462 | -132.49687 | 39286 ft | 469 kts | 43° |
| 2026-05-06 09:53 | 31.20784 | -132.43992 | 39280 ft | 468 kts | 43° |
| 2026-05-06 09:54 | 31.25104 | -132.38294 | 39283 ft | 468 kts | 43° |
| 2026-05-06 09:54 | 31.29408 | -132.32607 | 39283 ft | 466 kts | 43° |
| 2026-05-06 09:55 | 31.33703 | -132.26925 | 39277 ft | 466 kts | 43° |
| 2026-05-06 09:55 | 31.37971 | -132.21271 | 39282 ft | 467 kts | 43° |
| 2026-05-06 09:56 | 31.42271 | -132.15562 | 39291 ft | 466 kts | 43° |
| 2026-05-06 09:56 | 31.46545 | -132.09883 | 39283 ft | 464 kts | 43° |
| 2026-05-06 09:57 | 31.50814 | -132.04201 | 39282 ft | 465 kts | 43° |
| 2026-05-06 09:57 | 31.55099 | -131.98488 | 39301 ft | 467 kts | 43° |
| 2026-05-06 09:58 | 31.59390 | -131.92760 | 39296 ft | 468 kts | 43° |
| 2026-05-06 09:58 | 31.63698 | -131.87000 | 39295 ft | 469 kts | 44° |
| 2026-05-06 09:59 | 31.67993 | -131.81247 | 39287 ft | 468 kts | 44° |
| 2026-05-06 09:59 | 31.72282 | -131.75498 | 39276 ft | 468 kts | 44° |
| 2026-05-06 10:00 | 31.76587 | -131.69712 | 39276 ft | 471 kts | 44° |
| 2026-05-06 10:00 | 31.80876 | -131.63943 | 39283 ft | 471 kts | 44° |
| 2026-05-06 10:01 | 31.85187 | -131.58134 | 39284 ft | 471 kts | 44° |
| 2026-05-06 10:01 | 31.89497 | -131.52320 | 39284 ft | 473 kts | 45° |
| 2026-05-06 10:02 | 31.93823 | -131.46469 | 39285 ft | 473 kts | 45° |
| 2026-05-06 10:02 | 31.98139 | -131.40628 | 39285 ft | 472 kts | 45° |
| 2026-05-06 10:03 | 32.02439 | -131.34797 | 39284 ft | 471 kts | 45° |
| 2026-05-06 10:03 | 32.06739 | -131.28959 | 39281 ft | 471 kts | 46° |
| 2026-05-06 10:04 | 32.11033 | -131.23119 | 39275 ft | 470 kts | 46° |
| 2026-05-06 10:04 | 32.15288 | -131.17324 | 39273 ft | 471 kts | 46° |
| 2026-05-06 10:05 | 32.19578 | -131.11471 | 39282 ft | 471 kts | 46° |
| 2026-05-06 10:05 | 32.23869 | -131.05607 | 39283 ft | 473 kts | 46° |
| 2026-05-06 10:06 | 32.28176 | -130.99713 | 39286 ft | 475 kts | 46° |
| 2026-05-06 10:06 | 32.32486 | -130.93803 | 39287 ft | 474 kts | 46° |
| 2026-05-06 10:07 | 32.36785 | -130.87903 | 39278 ft | 473 kts | 47° |
| 2026-05-06 10:07 | 32.41053 | -130.82032 | 39278 ft | 474 kts | 47° |
| 2026-05-06 10:08 | 32.45349 | -130.76115 | 39281 ft | 474 kts | 47° |
| 2026-05-06 10:08 | 32.49649 | -130.70182 | 39278 ft | 474 kts | 47° |
| 2026-05-06 10:09 | 32.53948 | -130.64243 | 39280 ft | 475 kts | 47° |
| 2026-05-06 10:09 | 32.58252 | -130.58286 | 39282 ft | 475 kts | 47° |
| 2026-05-06 10:10 | 32.62550 | -130.52329 | 39281 ft | 476 kts | 47° |
| 2026-05-06 10:10 | 32.66830 | -130.46388 | 39281 ft | 476 kts | 48° |
| 2026-05-06 10:11 | 32.71117 | -130.40423 | 39274 ft | 473 kts | 48° |
| 2026-05-06 10:11 | 32.75382 | -130.34483 | 39271 ft | 472 kts | 48° |
| 2026-05-06 10:12 | 32.79639 | -130.28544 | 39267 ft | 472 kts | 48° |
| 2026-05-06 10:12 | 32.83893 | -130.22601 | 39274 ft | 471 kts | 49° |
| 2026-05-06 10:13 | 32.88123 | -130.16677 | 39269 ft | 469 kts | 49° |
| 2026-05-06 10:13 | 32.92359 | -130.10741 | 39267 ft | 471 kts | 49° |
| 2026-05-06 10:14 | 32.96600 | -130.04784 | 39268 ft | 471 kts | 49° |
| 2026-05-06 10:14 | 33.00798 | -129.98774 | 39285 ft | 470 kts | 52° |
| 2026-05-06 10:15 | 33.04787 | -129.92658 | 39272 ft | 471 kts | 51° |
| 2026-05-06 10:15 | 33.08810 | -129.86478 | 39273 ft | 472 kts | 52° |
| 2026-05-06 10:16 | 33.12836 | -129.80270 | 39280 ft | 472 kts | 51° |
| 2026-05-06 10:16 | 33.16848 | -129.74089 | 39271 ft | 469 kts | 52° |
| 2026-05-06 10:17 | 33.20836 | -129.67923 | 39267 ft | 468 kts | 51° |
| 2026-05-06 10:17 | 33.24792 | -129.61804 | 39263 ft | 468 kts | 52° |
| 2026-05-06 10:18 | 33.28772 | -129.55632 | 39269 ft | 468 kts | 51° |
| 2026-05-06 10:18 | 33.32736 | -129.49479 | 39268 ft | 467 kts | 52° |
| 2026-05-06 10:19 | 33.36702 | -129.43310 | 39273 ft | 468 kts | 52° |
| 2026-05-06 10:19 | 33.40677 | -129.37117 | 39269 ft | 469 kts | 52° |
| 2026-05-06 10:20 | 33.44647 | -129.30920 | 39268 ft | 468 kts | 52° |
| 2026-05-06 10:20 | 33.48593 | -129.24753 | 39265 ft | 466 kts | 52° |
| 2026-05-06 10:21 | 33.52530 | -129.18588 | 39261 ft | 465 kts | 52° |
| 2026-05-06 10:21 | 33.56462 | -129.12420 | 39260 ft | 466 kts | 52° |
| 2026-05-06 10:22 | 33.60383 | -129.06260 | 39264 ft | 464 kts | 52° |
| 2026-05-06 10:22 | 33.64296 | -129.00101 | 39260 ft | 464 kts | 52° |
| 2026-05-06 10:23 | 33.68214 | -128.93925 | 39263 ft | 465 kts | 52° |
| 2026-05-06 10:23 | 33.72107 | -128.87778 | 39259 ft | 466 kts | 52° |
| 2026-05-06 10:24 | 33.76013 | -128.81598 | 39258 ft | 463 kts | 52° |
| 2026-05-06 10:24 | 33.79904 | -128.75433 | 39256 ft | 462 kts | 52° |
| 2026-05-06 10:25 | 33.83789 | -128.69266 | 39254 ft | 462 kts | 52° |
| 2026-05-06 10:25 | 33.87672 | -128.63093 | 39255 ft | 462 kts | 52° |
| 2026-05-06 10:26 | 33.91543 | -128.56928 | 39252 ft | 462 kts | 52° |
| 2026-05-06 10:26 | 33.95419 | -128.50744 | 39254 ft | 463 kts | 52° |
| 2026-05-06 10:27 | 33.99301 | -128.44541 | 39255 ft | 464 kts | 52° |
| 2026-05-06 10:27 | 34.03185 | -128.38324 | 39254 ft | 465 kts | 52° |
| 2026-05-06 10:28 | 34.07068 | -128.32097 | 39257 ft | 464 kts | 52° |
| 2026-05-06 10:28 | 34.10947 | -128.25865 | 39256 ft | 463 kts | 52° |
| 2026-05-06 10:29 | 34.14812 | -128.19647 | 39254 ft | 463 kts | 52° |
| 2026-05-06 10:29 | 34.18665 | -128.13435 | 39249 ft | 461 kts | 52° |
| 2026-05-06 10:30 | 34.22500 | -128.07243 | 39240 ft | 460 kts | 52° |
| 2026-05-06 10:30 | 34.25693 | -128.02079 | 39240 ft | 461 kts | 52° |
| 2026-05-06 10:31 | 34.30155 | -127.94851 | 39254 ft | 462 kts | 52° |
| 2026-05-06 10:31 | 34.33344 | -127.89676 | 39248 ft | 460 kts | 52° |
| 2026-05-06 10:32 | 34.37165 | -127.83465 | 39248 ft | 460 kts | 53° |
| 2026-05-06 10:32 | 34.40982 | -127.77250 | 39236 ft | 460 kts | 53° |
| 2026-05-06 10:33 | 34.44792 | -127.71035 | 39242 ft | 459 kts | 52° |
| 2026-05-06 10:33 | 34.48495 | -127.64985 | 39241 ft | 457 kts | 53° |
| 2026-05-06 10:34 | 34.52261 | -127.58823 | 39242 ft | 459 kts | 53° |
| 2026-05-06 10:34 | 34.56064 | -127.52587 | 39238 ft | 459 kts | 53° |
| 2026-05-06 10:35 | 34.59861 | -127.46351 | 39235 ft | 459 kts | 53° |
| 2026-05-06 10:35 | 34.63642 | -127.40130 | 39234 ft | 457 kts | 53° |
| 2026-05-06 10:36 | 34.67414 | -127.33914 | 39233 ft | 458 kts | 53° |
| 2026-05-06 10:36 | 34.71169 | -127.27713 | 39233 ft | 459 kts | 53° |
| 2026-05-06 10:37 | 34.74949 | -127.21462 | 39229 ft | 459 kts | 53° |
| 2026-05-06 10:37 | 34.78717 | -127.15219 | 39229 ft | 456 kts | 53° |
| 2026-05-06 10:38 | 34.82462 | -127.09004 | 39229 ft | 456 kts | 53° |
| 2026-05-06 10:38 | 34.86213 | -127.02768 | 39224 ft | 457 kts | 53° |
| 2026-05-06 10:39 | 34.89976 | -126.96499 | 39230 ft | 458 kts | 53° |
| 2026-05-06 10:39 | 34.93724 | -126.90247 | 39222 ft | 456 kts | 53° |
| 2026-05-06 10:40 | 34.97445 | -126.84027 | 39218 ft | 457 kts | 53° |
| 2026-05-06 10:40 | 35.01190 | -126.77756 | 39219 ft | 457 kts | 53° |
| 2026-05-06 10:41 | 35.04934 | -126.71476 | 39225 ft | 457 kts | 53° |
| 2026-05-06 10:41 | 35.08659 | -126.65216 | 39224 ft | 455 kts | 53° |
| 2026-05-06 10:42 | 35.12355 | -126.58995 | 39217 ft | 456 kts | 53° |
| 2026-05-06 10:42 | 35.16075 | -126.52722 | 39216 ft | 456 kts | 53° |
| 2026-05-06 10:43 | 35.19799 | -126.46431 | 39221 ft | 457 kts | 53° |
| 2026-05-06 10:44 | 35.25378 | -126.36984 | 39218 ft | 456 kts | 53° |
| 2026-05-06 10:44 | 35.29085 | -126.30694 | 39213 ft | 455 kts | 53° |
| 2026-05-06 10:45 | 35.32789 | -126.24396 | 39219 ft | 455 kts | 53° |
| 2026-05-06 10:45 | 35.36478 | -126.18115 | 39210 ft | 453 kts | 53° |
| 2026-05-06 10:46 | 35.40157 | -126.11837 | 39209 ft | 454 kts | 53° |
| 2026-05-06 10:46 | 35.43821 | -126.05575 | 39205 ft | 455 kts | 53° |
| 2026-05-06 10:47 | 35.47517 | -125.99247 | 39214 ft | 456 kts | 53° |
| 2026-05-06 10:47 | 35.51212 | -125.92909 | 39211 ft | 457 kts | 53° |
| 2026-05-06 10:48 | 35.54909 | -125.86556 | 39209 ft | 457 kts | 53° |
| 2026-05-06 10:48 | 35.58599 | -125.80202 | 39208 ft | 457 kts | 53° |
| 2026-05-06 10:49 | 35.62286 | -125.73843 | 39203 ft | 457 kts | 53° |
| 2026-05-06 10:49 | 35.65963 | -125.67489 | 39191 ft | 454 kts | 53° |
| 2026-05-06 10:50 | 35.69616 | -125.61165 | 39190 ft | 453 kts | 53° |
| 2026-05-06 10:50 | 35.73271 | -125.54828 | 39195 ft | 455 kts | 53° |
| 2026-05-06 10:51 | 35.76931 | -125.48469 | 39194 ft | 455 kts | 53° |
| 2026-05-06 10:51 | 35.80575 | -125.42125 | 39196 ft | 453 kts | 53° |
| 2026-05-06 10:52 | 35.84216 | -125.35777 | 39194 ft | 454 kts | 53° |
| 2026-05-06 10:52 | 35.87853 | -125.29421 | 39193 ft | 453 kts | 53° |
| 2026-05-06 10:53 | 35.91488 | -125.23060 | 39195 ft | 454 kts | 53° |
| 2026-05-06 10:53 | 35.95100 | -125.16726 | 39197 ft | 455 kts | 53° |
| 2026-05-06 10:54 | 35.98734 | -125.10343 | 39197 ft | 454 kts | 53° |
| 2026-05-06 10:54 | 36.02354 | -125.03973 | 39193 ft | 452 kts | 53° |
| 2026-05-06 10:55 | 36.05974 | -124.97589 | 39194 ft | 454 kts | 53° |
| 2026-05-06 10:55 | 36.09587 | -124.91206 | 39200 ft | 453 kts | 53° |
| 2026-05-06 10:56 | 36.13194 | -124.84824 | 39195 ft | 453 kts | 53° |
| 2026-05-06 10:56 | 36.16802 | -124.78427 | 39193 ft | 453 kts | 53° |
| 2026-05-06 10:57 | 36.20568 | -124.72241 | 39191 ft | 453 kts | 50° |
| 2026-05-06 10:57 | 36.24462 | -124.66112 | 39189 ft | 452 kts | 50° |
| 2026-05-06 10:58 | 36.28351 | -124.59991 | 39191 ft | 451 kts | 50° |
| 2026-05-06 10:58 | 36.32229 | -124.53873 | 39191 ft | 452 kts | 50° |
| 2026-05-06 10:59 | 36.36116 | -124.47729 | 39190 ft | 453 kts | 50° |
| 2026-05-06 10:59 | 36.38044 | -124.44679 | 39044 ft | 445 kts | 50° |
| 2026-05-06 10:59 | 36.39955 | -124.41651 | 38166 ft | 447 kts | 50° |
| 2026-05-06 10:59 | 36.41879 | -124.38602 | 37218 ft | 450 kts | 50° |
| 2026-05-06 11:00 | 36.43820 | -124.35523 | 36240 ft | 454 kts | 50° |
| 2026-05-06 11:00 | 36.45758 | -124.32442 | 35646 ft | 450 kts | 50° |
| 2026-05-06 11:00 | 36.47675 | -124.29394 | 35112 ft | 446 kts | 50° |
| 2026-05-06 11:00 | 36.49587 | -124.26354 | 34557 ft | 446 kts | 50° |
| 2026-05-06 11:01 | 36.51512 | -124.23291 | 33984 ft | 453 kts | 50° |
| 2026-05-06 11:01 | 36.53462 | -124.20183 | 33414 ft | 457 kts | 50° |
| 2026-05-06 11:01 | 36.55420 | -124.17056 | 32843 ft | 459 kts | 50° |
| 2026-05-06 11:01 | 36.57387 | -124.13915 | 32288 ft | 462 kts | 50° |
| 2026-05-06 11:02 | 36.59362 | -124.10760 | 31705 ft | 464 kts | 50° |
| 2026-05-06 11:02 | 36.61346 | -124.07585 | 31136 ft | 462 kts | 50° |
| 2026-05-06 11:02 | 36.63314 | -124.04432 | 30568 ft | 460 kts | 50° |
| 2026-05-06 11:02 | 36.65272 | -124.01293 | 29961 ft | 457 kts | 50° |
| 2026-05-06 11:03 | 36.67181 | -123.98230 | 29409 ft | 452 kts | 50° |
| 2026-05-06 11:03 | 36.69101 | -123.95148 | 28857 ft | 447 kts | 50° |
| 2026-05-06 11:03 | 36.70998 | -123.92099 | 28302 ft | 443 kts | 50° |
| 2026-05-06 11:03 | 36.72877 | -123.89076 | 27756 ft | 439 kts | 50° |
| 2026-05-06 11:04 | 36.74740 | -123.86076 | 27218 ft | 436 kts | 50° |
| 2026-05-06 11:04 | 36.76591 | -123.83093 | 26682 ft | 433 kts | 50° |
| 2026-05-06 11:04 | 36.78426 | -123.80134 | 26152 ft | 430 kts | 50° |
| 2026-05-06 11:04 | 36.80247 | -123.77194 | 25618 ft | 427 kts | 50° |
| 2026-05-06 11:05 | 36.82056 | -123.74272 | 25098 ft | 424 kts | 50° |
| 2026-05-06 11:05 | 36.83853 | -123.71365 | 24579 ft | 421 kts | 50° |
| 2026-05-06 11:05 | 36.85636 | -123.68479 | 24066 ft | 418 kts | 50° |
| 2026-05-06 11:05 | 36.87405 | -123.65613 | 23511 ft | 413 kts | 50° |
| 2026-05-06 11:06 | 36.89135 | -123.62807 | 22995 ft | 403 kts | 50° |
| 2026-05-06 11:06 | 36.90826 | -123.60062 | 22502 ft | 393 kts | 50° |
| 2026-05-06 11:06 | 36.92475 | -123.57385 | 22020 ft | 384 kts | 50° |
| 2026-05-06 11:06 | 36.94087 | -123.54764 | 21551 ft | 376 kts | 50° |
| 2026-05-06 11:07 | 36.95664 | -123.52197 | 21103 ft | 368 kts | 50° |
| 2026-05-06 11:07 | 36.97211 | -123.49675 | 20644 ft | 362 kts | 50° |
| 2026-05-06 11:07 | 36.98739 | -123.47184 | 20197 ft | 359 kts | 50° |
| 2026-05-06 11:07 | 37.00257 | -123.44709 | 19764 ft | 358 kts | 50° |
| 2026-05-06 11:08 | 37.01769 | -123.42240 | 19327 ft | 356 kts | 50° |
| 2026-05-06 11:08 | 37.03274 | -123.39782 | 18884 ft | 355 kts | 50° |
| 2026-05-06 11:08 | 37.04771 | -123.37334 | 18446 ft | 354 kts | 50° |
| 2026-05-06 11:08 | 37.06242 | -123.34927 | 17987 ft | 351 kts | 50° |
| 2026-05-06 11:09 | 37.07721 | -123.32505 | 17554 ft | 349 kts | 51° |
| 2026-05-06 11:09 | 37.09190 | -123.30098 | 17120 ft | 347 kts | 51° |
| 2026-05-06 11:09 | 37.10654 | -123.27696 | 16698 ft | 346 kts | 51° |
| 2026-05-06 11:09 | 37.12116 | -123.25297 | 16273 ft | 345 kts | 51° |
| 2026-05-06 11:10 | 37.13572 | -123.22907 | 15851 ft | 344 kts | 51° |
| 2026-05-06 11:10 | 37.15021 | -123.20526 | 15420 ft | 343 kts | 51° |
| 2026-05-06 11:10 | 37.16456 | -123.18166 | 15003 ft | 337 kts | 52° |
| 2026-05-06 11:10 | 37.17861 | -123.15853 | 14597 ft | 329 kts | 52° |
| 2026-05-06 11:11 | 37.19189 | -123.13538 | 14058 ft | 325 kts | 61° |
| 2026-05-06 11:11 | 37.19966 | -123.10910 | 13606 ft | 318 kts | 72° |
| 2026-05-06 11:11 | 37.20603 | -123.08287 | 13210 ft | 311 kts | 72° |
| 2026-05-06 11:11 | 37.21202 | -123.05699 | 12833 ft | 307 kts | 73° |
| 2026-05-06 11:12 | 37.21803 | -123.03130 | 12455 ft | 306 kts | 72° |
| 2026-05-06 11:12 | 37.22409 | -123.00581 | 12087 ft | 304 kts | 72° |
| 2026-05-06 11:12 | 37.23012 | -122.98039 | 11710 ft | 303 kts | 73° |
| 2026-05-06 11:12 | 37.23607 | -122.95512 | 11333 ft | 300 kts | 73° |
| 2026-05-06 11:13 | 37.24198 | -122.93003 | 10962 ft | 300 kts | 73° |
| 2026-05-06 11:13 | 37.24790 | -122.90485 | 10593 ft | 302 kts | 73° |
| 2026-05-06 11:13 | 37.25379 | -122.87978 | 10232 ft | 298 kts | 73° |
| 2026-05-06 11:13 | 37.25958 | -122.85511 | 9963 ft | 288 kts | 73° |
| 2026-05-06 11:14 | 37.26505 | -122.83175 | 9929 ft | 273 kts | 73° |
| 2026-05-06 11:14 | 37.27042 | -122.80886 | 9913 ft | 274 kts | 73° |
| 2026-05-06 11:14 | 37.27577 | -122.78602 | 9906 ft | 272 kts | 72° |
| 2026-05-06 11:14 | 37.28109 | -122.76326 | 9875 ft | 269 kts | 73° |
| 2026-05-06 11:15 | 37.28635 | -122.74068 | 9259 ft | 273 kts | 72° |
| 2026-05-06 11:15 | 37.29165 | -122.71794 | 8811 ft | 269 kts | 72° |
| 2026-05-06 11:15 | 37.29691 | -122.69540 | 8328 ft | 268 kts | 72° |
| 2026-05-06 11:15 | 37.30207 | -122.67323 | 7982 ft | 262 kts | 72° |
| 2026-05-06 11:16 | 37.30712 | -122.65149 | 7994 ft | 261 kts | 72° |
| 2026-05-06 11:16 | 37.31054 | -122.63685 | 7994 ft | 265 kts | 72° |
| 2026-05-06 11:16 | 37.31572 | -122.61452 | 8005 ft | 266 kts | 71° |
| 2026-05-06 11:16 | 37.32232 | -122.58593 | 7988 ft | 251 kts | 71° |
| 2026-05-06 11:17 | 37.32715 | -122.56514 | 7981 ft | 243 kts | 71° |
| 2026-05-06 11:17 | 37.33036 | -122.55133 | 7984 ft | 245 kts | 71° |
| 2026-05-06 11:17 | 37.33516 | -122.53063 | 7989 ft | 246 kts | 71° |
| 2026-05-06 11:17 | 37.33993 | -122.50997 | 7987 ft | 247 kts | 71° |
| 2026-05-06 11:18 | 37.34473 | -122.48918 | 7988 ft | 247 kts | 71° |
| 2026-05-06 11:18 | 37.34952 | -122.46840 | 7985 ft | 247 kts | 71° |
| 2026-05-06 11:18 | 37.35425 | -122.44792 | 7987 ft | 247 kts | 71° |
| 2026-05-06 11:18 | 37.35902 | -122.42718 | 7988 ft | 247 kts | 71° |
| 2026-05-06 11:19 | 37.36380 | -122.40642 | 7989 ft | 247 kts | 71° |
| 2026-05-06 11:19 | 37.36857 | -122.38565 | 7988 ft | 247 kts | 71° |
| 2026-05-06 11:19 | 37.37336 | -122.36484 | 7992 ft | 248 kts | 71° |
| 2026-05-06 11:19 | 37.37813 | -122.34401 | 7991 ft | 248 kts | 71° |
| 2026-05-06 11:20 | 37.38450 | -122.31623 | 7994 ft | 247 kts | 71° |
| 2026-05-06 11:20 | 37.38765 | -122.30252 | 7987 ft | 247 kts | 71° |
| 2026-05-06 11:20 | 37.39241 | -122.28171 | 7988 ft | 247 kts | 71° |
| 2026-05-06 11:20 | 37.39715 | -122.26092 | 8002 ft | 248 kts | 71° |
| 2026-05-06 11:21 | 37.40191 | -122.24002 | 7867 ft | 251 kts | 71° |
| 2026-05-06 11:21 | 37.40666 | -122.21906 | 7570 ft | 248 kts | 71° |
| 2026-05-06 11:21 | 37.41138 | -122.19828 | 7261 ft | 246 kts | 71° |
| 2026-05-06 11:21 | 37.41607 | -122.17763 | 6959 ft | 245 kts | 70° |
| 2026-05-06 11:22 | 37.42176 | -122.15770 | 6626 ft | 239 kts | 53° |
| 2026-05-06 11:22 | 37.43433 | -122.14578 | 6365 ft | 231 kts | 14° |
| 2026-05-06 11:22 | 37.45022 | -122.14335 | 6168 ft | 231 kts | 2° |
| 2026-05-06 11:22 | 37.46627 | -122.14341 | 6058 ft | 230 kts | 356° |
| 2026-05-06 11:23 | 37.48186 | -122.14821 | 5991 ft | 233 kts | 341° |
| 2026-05-06 11:23 | 37.49670 | -122.15642 | 5994 ft | 233 kts | 335° |
| 2026-05-06 11:23 | 37.51130 | -122.16537 | 6012 ft | 234 kts | 336° |
| 2026-05-06 11:23 | 37.52620 | -122.17360 | 6020 ft | 234 kts | 338° |
| 2026-05-06 11:24 | 37.54003 | -122.18383 | 5589 ft | 236 kts | 316° |
| 2026-05-06 11:24 | 37.54902 | -122.20133 | 5133 ft | 241 kts | 292° |
| 2026-05-06 11:24 | 37.55349 | -122.22170 | 4735 ft | 239 kts | 294° |
| 2026-05-06 11:24 | 37.56274 | -122.23905 | 4139 ft | 242 kts | 305° |
| 2026-05-06 11:25 | 37.56982 | -122.25900 | 3237 ft | 249 kts | 292° |
| 2026-05-06 11:25 | 37.57763 | -122.27695 | 3013 ft | 213 kts | 297° |
| 2026-05-06 11:25 | 37.58413 | -122.29242 | 2551 ft | 194 kts | 296° |
| 2026-05-06 11:25 | 37.59028 | -122.30680 | 1784 ft | 183 kts | 296° |
| 2026-05-06 11:26 | 37.59613 | -122.32072 | 990 ft | 170 kts | 295° |
| 2026-05-06 11:26 | 37.60102 | -122.33322 | 598 ft | 151 kts | 295° |
| 2026-05-06 11:26 | 37.60565 | -122.34420 | 328 ft | 134 kts | 299° |
| 2026-05-06 11:26 | 37.60987 | -122.35408 | 145 ft | 127 kts | 297° |
| 2026-05-06 11:27 | 37.61387 | -122.36357 | 26 ft | 115 kts | 297° |
| 2026-05-06 11:27 | 37.61681 | -122.37062 | 28 ft | 56 kts | 297° |
| 2026-05-06 11:27 | 37.61849 | -122.37452 | 26 ft | 50 kts | 298° |
| 2026-05-06 11:27 | 37.62002 | -122.37826 | 28 ft | 46 kts | 297° |
| 2026-05-06 11:28 | 37.62151 | -122.38166 | 29 ft | 43 kts | 299° |
| 2026-05-06 11:28 | 37.62299 | -122.38523 | 26 ft | 48 kts | 296° |
| 2026-05-06 11:28 | 37.62419 | -122.38839 | 25 ft | 23 kts | 271° |
| 2026-05-06 11:28 | 37.62334 | -122.38959 | 21 ft | 21 kts | 210° |
| 2026-05-06 11:29 | 37.62217 | -122.39074 | 21 ft | 23 kts | 227° |
| 2026-05-06 11:29 | 37.62102 | -122.39188 | 20 ft | 19 kts | 210° |
| 2026-05-06 11:29 | 37.61978 | -122.39205 | 24 ft | 14 kts | 197° |
| 2026-05-06 11:29 | 37.61906 | -122.39243 | 23 ft | 6 kts | 206° |
| 2026-05-06 11:30 | 37.61897 | -122.39249 | 24 ft | 0 kts | 208° |